<?xml version="1.0" encoding="UTF-8" standalone="no" ?>
<gpx xmlns="http://www.topografix.com/GPX/1/1" xmlns:xsi="http://www.w3.org/2001/XMLSchema-instance" xsi:schemaLocation="http://www.topografix.com/GPX/1/1 http://www.topografix.com/GPX/1/1/gpx.xsd" version="1.1" creator="VisuGPX - https://www.visugpx.com">
  <metadata>
    <name> Le Crêt du Boeuf  (Beaufortain)</name>
    <desc><![CDATA[Rando du 4 decembre au départ du barrage du lac de Saint Guérin.]]></desc>
  </metadata>
  <trk>
    <name><![CDATA[2018-12-04_Crêt du boeuf]]></name>
    <desc><![CDATA[<p>Heure de départ: 12/04/2018 08:54<br/>Heure d'arrivée: 12/04/2018 15:50<br/>Distance: 16,1 km (06:55)<br/>Temps déplacement: 04:46<br/>Vitesse moyenne: 2,33 km/h<br/>Vitesse moyenne mouv.: 3,38 km/h<br/>Vitesse Max.: 8,02 km/h<br/>Altitude minimale: 1565 m<br/>Altitude maximale: 2382 m<br/>Vitesse de montée: 237,4 m/h<br/>Vitesse de descente: -291,4 m/h<br/>Gain d'altitude: 909 m<br/>Perte d'altitude: -887 m<br/>Temps de montée: 03:50<br/>Temps de descente: 03:02<br/></p><hr align="center" width="480" style="height: 2px; width: 517px"/>]]></desc>
    <trkseg>
      <trkpt lat="45.65113" lon="6.58142">
        <ele>1565.2</ele>
        <time>2018-12-04T07:54:46Z</time>
      </trkpt>
      <trkpt lat="45.65114" lon="6.58116">
        <ele>1577.8</ele>
        <time>2018-12-04T08:05:47Z</time>
      </trkpt>
      <trkpt lat="45.65099" lon="6.58131">
        <ele>1576.3</ele>
        <time>2018-12-04T08:08:29Z</time>
      </trkpt>
      <trkpt lat="45.65104" lon="6.58155">
        <ele>1575.9</ele>
        <time>2018-12-04T08:08:48Z</time>
      </trkpt>
      <trkpt lat="45.65108" lon="6.58181">
        <ele>1576.2</ele>
        <time>2018-12-04T08:09:05Z</time>
      </trkpt>
      <trkpt lat="45.65114" lon="6.58205">
        <ele>1576</ele>
        <time>2018-12-04T08:09:25Z</time>
      </trkpt>
      <trkpt lat="45.65117" lon="6.58232">
        <ele>1574.2</ele>
        <time>2018-12-04T08:09:45Z</time>
      </trkpt>
      <trkpt lat="45.65114" lon="6.58259">
        <ele>1573.1</ele>
        <time>2018-12-04T08:10:01Z</time>
      </trkpt>
      <trkpt lat="45.65106" lon="6.58283">
        <ele>1572.1</ele>
        <time>2018-12-04T08:10:15Z</time>
      </trkpt>
      <trkpt lat="45.65093" lon="6.58304">
        <ele>1571.8</ele>
        <time>2018-12-04T08:10:29Z</time>
      </trkpt>
      <trkpt lat="45.65081" lon="6.58325">
        <ele>1571.4</ele>
        <time>2018-12-04T08:10:45Z</time>
      </trkpt>
      <trkpt lat="45.6509" lon="6.58347">
        <ele>1573</ele>
        <time>2018-12-04T08:11:44Z</time>
      </trkpt>
      <trkpt lat="45.65107" lon="6.58357">
        <ele>1573.7</ele>
        <time>2018-12-04T08:12:10Z</time>
      </trkpt>
      <trkpt lat="45.65125" lon="6.58365">
        <ele>1578.5</ele>
        <time>2018-12-04T08:12:39Z</time>
      </trkpt>
      <trkpt lat="45.65142" lon="6.58377">
        <ele>1582.3</ele>
        <time>2018-12-04T08:13:07Z</time>
      </trkpt>
      <trkpt lat="45.6516" lon="6.58381">
        <ele>1588.4</ele>
        <time>2018-12-04T08:13:38Z</time>
      </trkpt>
      <trkpt lat="45.65162" lon="6.58407">
        <ele>1595.3</ele>
        <time>2018-12-04T08:14:11Z</time>
      </trkpt>
      <trkpt lat="45.65154" lon="6.58431">
        <ele>1600.4</ele>
        <time>2018-12-04T08:14:32Z</time>
      </trkpt>
      <trkpt lat="45.65144" lon="6.58452">
        <ele>1602.7</ele>
        <time>2018-12-04T08:14:49Z</time>
      </trkpt>
      <trkpt lat="45.65131" lon="6.58471">
        <ele>1604.3</ele>
        <time>2018-12-04T08:15:04Z</time>
      </trkpt>
      <trkpt lat="45.65119" lon="6.58492">
        <ele>1605.7</ele>
        <time>2018-12-04T08:15:19Z</time>
      </trkpt>
      <trkpt lat="45.65106" lon="6.58509">
        <ele>1607.7</ele>
        <time>2018-12-04T08:15:36Z</time>
      </trkpt>
      <trkpt lat="45.65099" lon="6.58533">
        <ele>1608.8</ele>
        <time>2018-12-04T08:15:53Z</time>
      </trkpt>
      <trkpt lat="45.65096" lon="6.58559">
        <ele>1610.7</ele>
        <time>2018-12-04T08:16:13Z</time>
      </trkpt>
      <trkpt lat="45.65095" lon="6.58586">
        <ele>1614.5</ele>
        <time>2018-12-04T08:16:33Z</time>
      </trkpt>
      <trkpt lat="45.6509" lon="6.58611">
        <ele>1618</ele>
        <time>2018-12-04T08:16:49Z</time>
      </trkpt>
      <trkpt lat="45.65073" lon="6.58622">
        <ele>1618.8</ele>
        <time>2018-12-04T08:17:05Z</time>
      </trkpt>
      <trkpt lat="45.65054" lon="6.58616">
        <ele>1618.6</ele>
        <time>2018-12-04T08:17:23Z</time>
      </trkpt>
      <trkpt lat="45.65037" lon="6.58607">
        <ele>1618.3</ele>
        <time>2018-12-04T08:17:45Z</time>
      </trkpt>
      <trkpt lat="45.6502" lon="6.58595">
        <ele>1617.9</ele>
        <time>2018-12-04T08:18:02Z</time>
      </trkpt>
      <trkpt lat="45.65003" lon="6.58599">
        <ele>1618.2</ele>
        <time>2018-12-04T08:18:19Z</time>
      </trkpt>
      <trkpt lat="45.64994" lon="6.58623">
        <ele>1622.6</ele>
        <time>2018-12-04T08:18:42Z</time>
      </trkpt>
      <trkpt lat="45.64991" lon="6.58649">
        <ele>1624.1</ele>
        <time>2018-12-04T08:19:01Z</time>
      </trkpt>
      <trkpt lat="45.6498" lon="6.5867">
        <ele>1626.1</ele>
        <time>2018-12-04T08:19:16Z</time>
      </trkpt>
      <trkpt lat="45.64964" lon="6.58684">
        <ele>1628.2</ele>
        <time>2018-12-04T08:19:33Z</time>
      </trkpt>
      <trkpt lat="45.64951" lon="6.58703">
        <ele>1632</ele>
        <time>2018-12-04T08:19:52Z</time>
      </trkpt>
      <trkpt lat="45.64937" lon="6.5872">
        <ele>1633.6</ele>
        <time>2018-12-04T08:20:07Z</time>
      </trkpt>
      <trkpt lat="45.64919" lon="6.58725">
        <ele>1635.3</ele>
        <time>2018-12-04T08:20:26Z</time>
      </trkpt>
      <trkpt lat="45.64902" lon="6.58732">
        <ele>1635.9</ele>
        <time>2018-12-04T08:20:48Z</time>
      </trkpt>
      <trkpt lat="45.64883" lon="6.58734">
        <ele>1635.9</ele>
        <time>2018-12-04T08:21:04Z</time>
      </trkpt>
      <trkpt lat="45.64865" lon="6.58726">
        <ele>1637.5</ele>
        <time>2018-12-04T08:21:22Z</time>
      </trkpt>
      <trkpt lat="45.64848" lon="6.58716">
        <ele>1642</ele>
        <time>2018-12-04T08:21:45Z</time>
      </trkpt>
      <trkpt lat="45.6483" lon="6.58706">
        <ele>1642.9</ele>
        <time>2018-12-04T08:22:01Z</time>
      </trkpt>
      <trkpt lat="45.64813" lon="6.58693">
        <ele>1643.8</ele>
        <time>2018-12-04T08:22:21Z</time>
      </trkpt>
      <trkpt lat="45.64797" lon="6.5868">
        <ele>1645.3</ele>
        <time>2018-12-04T08:22:36Z</time>
      </trkpt>
      <trkpt lat="45.64779" lon="6.58671">
        <ele>1646.4</ele>
        <time>2018-12-04T08:22:54Z</time>
      </trkpt>
      <trkpt lat="45.64764" lon="6.58656">
        <ele>1647.5</ele>
        <time>2018-12-04T08:23:09Z</time>
      </trkpt>
      <trkpt lat="45.64747" lon="6.58647">
        <ele>1648.6</ele>
        <time>2018-12-04T08:23:25Z</time>
      </trkpt>
      <trkpt lat="45.6473" lon="6.58636">
        <ele>1649.8</ele>
        <time>2018-12-04T08:23:44Z</time>
      </trkpt>
      <trkpt lat="45.64714" lon="6.58622">
        <ele>1652.1</ele>
        <time>2018-12-04T08:24:02Z</time>
      </trkpt>
      <trkpt lat="45.64696" lon="6.58621">
        <ele>1654.3</ele>
        <time>2018-12-04T08:24:17Z</time>
      </trkpt>
      <trkpt lat="45.64678" lon="6.58616">
        <ele>1657.8</ele>
        <time>2018-12-04T08:24:32Z</time>
      </trkpt>
      <trkpt lat="45.6467" lon="6.58592">
        <ele>1659.6</ele>
        <time>2018-12-04T08:24:47Z</time>
      </trkpt>
      <trkpt lat="45.64657" lon="6.58574">
        <ele>1659.6</ele>
        <time>2018-12-04T08:25:02Z</time>
      </trkpt>
      <trkpt lat="45.64644" lon="6.58556">
        <ele>1661.7</ele>
        <time>2018-12-04T08:25:17Z</time>
      </trkpt>
      <trkpt lat="45.64628" lon="6.58543">
        <ele>1664.9</ele>
        <time>2018-12-04T08:25:33Z</time>
      </trkpt>
      <trkpt lat="45.64611" lon="6.5853">
        <ele>1667</ele>
        <time>2018-12-04T08:25:48Z</time>
      </trkpt>
      <trkpt lat="45.64594" lon="6.58517">
        <ele>1667.6</ele>
        <time>2018-12-04T08:26:03Z</time>
      </trkpt>
      <trkpt lat="45.64577" lon="6.58509">
        <ele>1669.4</ele>
        <time>2018-12-04T08:26:19Z</time>
      </trkpt>
      <trkpt lat="45.6456" lon="6.58496">
        <ele>1670.8</ele>
        <time>2018-12-04T08:26:35Z</time>
      </trkpt>
      <trkpt lat="45.64543" lon="6.5849">
        <ele>1670.3</ele>
        <time>2018-12-04T08:27:05Z</time>
      </trkpt>
      <trkpt lat="45.64527" lon="6.58475">
        <ele>1668.4</ele>
        <time>2018-12-04T08:27:47Z</time>
      </trkpt>
      <trkpt lat="45.64509" lon="6.58467">
        <ele>1668</ele>
        <time>2018-12-04T08:28:03Z</time>
      </trkpt>
      <trkpt lat="45.64491" lon="6.5846">
        <ele>1668.8</ele>
        <time>2018-12-04T08:28:19Z</time>
      </trkpt>
      <trkpt lat="45.64472" lon="6.58459">
        <ele>1670.7</ele>
        <time>2018-12-04T08:28:44Z</time>
      </trkpt>
      <trkpt lat="45.64454" lon="6.58462">
        <ele>1671.3</ele>
        <time>2018-12-04T08:29:11Z</time>
      </trkpt>
      <trkpt lat="45.64435" lon="6.58465">
        <ele>1672.1</ele>
        <time>2018-12-04T08:29:26Z</time>
      </trkpt>
      <trkpt lat="45.64417" lon="6.58474">
        <ele>1672.1</ele>
        <time>2018-12-04T08:29:40Z</time>
      </trkpt>
      <trkpt lat="45.64402" lon="6.58487">
        <ele>1672.2</ele>
        <time>2018-12-04T08:29:54Z</time>
      </trkpt>
      <trkpt lat="45.64387" lon="6.58504">
        <ele>1671.9</ele>
        <time>2018-12-04T08:30:11Z</time>
      </trkpt>
      <trkpt lat="45.64371" lon="6.58515">
        <ele>1669.9</ele>
        <time>2018-12-04T08:30:30Z</time>
      </trkpt>
      <trkpt lat="45.64352" lon="6.58515">
        <ele>1668.9</ele>
        <time>2018-12-04T08:30:44Z</time>
      </trkpt>
      <trkpt lat="45.64335" lon="6.58524">
        <ele>1668.3</ele>
        <time>2018-12-04T08:30:58Z</time>
      </trkpt>
      <trkpt lat="45.64317" lon="6.5853">
        <ele>1667.3</ele>
        <time>2018-12-04T08:31:13Z</time>
      </trkpt>
      <trkpt lat="45.64303" lon="6.58548">
        <ele>1665.9</ele>
        <time>2018-12-04T08:31:28Z</time>
      </trkpt>
      <trkpt lat="45.64292" lon="6.5857">
        <ele>1664.7</ele>
        <time>2018-12-04T08:31:43Z</time>
      </trkpt>
      <trkpt lat="45.64276" lon="6.58584">
        <ele>1663.7</ele>
        <time>2018-12-04T08:31:59Z</time>
      </trkpt>
      <trkpt lat="45.64261" lon="6.58598">
        <ele>1663.1</ele>
        <time>2018-12-04T08:32:12Z</time>
      </trkpt>
      <trkpt lat="45.64243" lon="6.58605">
        <ele>1661.6</ele>
        <time>2018-12-04T08:32:26Z</time>
      </trkpt>
      <trkpt lat="45.64226" lon="6.58616">
        <ele>1660.7</ele>
        <time>2018-12-04T08:32:40Z</time>
      </trkpt>
      <trkpt lat="45.64209" lon="6.58627">
        <ele>1659.3</ele>
        <time>2018-12-04T08:32:55Z</time>
      </trkpt>
      <trkpt lat="45.64193" lon="6.58639">
        <ele>1659</ele>
        <time>2018-12-04T08:33:10Z</time>
      </trkpt>
      <trkpt lat="45.64177" lon="6.58651">
        <ele>1657.9</ele>
        <time>2018-12-04T08:33:25Z</time>
      </trkpt>
      <trkpt lat="45.64159" lon="6.58656">
        <ele>1656</ele>
        <time>2018-12-04T08:33:40Z</time>
      </trkpt>
      <trkpt lat="45.64141" lon="6.58668">
        <ele>1654.6</ele>
        <time>2018-12-04T08:33:54Z</time>
      </trkpt>
      <trkpt lat="45.64124" lon="6.58678">
        <ele>1653.4</ele>
        <time>2018-12-04T08:34:10Z</time>
      </trkpt>
      <trkpt lat="45.64106" lon="6.58687">
        <ele>1652.7</ele>
        <time>2018-12-04T08:34:24Z</time>
      </trkpt>
      <trkpt lat="45.64089" lon="6.58699">
        <ele>1651.8</ele>
        <time>2018-12-04T08:34:36Z</time>
      </trkpt>
      <trkpt lat="45.6407" lon="6.58703">
        <ele>1650</ele>
        <time>2018-12-04T08:34:51Z</time>
      </trkpt>
      <trkpt lat="45.64052" lon="6.58703">
        <ele>1647.3</ele>
        <time>2018-12-04T08:35:05Z</time>
      </trkpt>
      <trkpt lat="45.64035" lon="6.5871">
        <ele>1644.8</ele>
        <time>2018-12-04T08:35:19Z</time>
      </trkpt>
      <trkpt lat="45.64017" lon="6.58716">
        <ele>1641.3</ele>
        <time>2018-12-04T08:35:35Z</time>
      </trkpt>
      <trkpt lat="45.63999" lon="6.58713">
        <ele>1638.3</ele>
        <time>2018-12-04T08:35:50Z</time>
      </trkpt>
      <trkpt lat="45.6398" lon="6.58717">
        <ele>1637.3</ele>
        <time>2018-12-04T08:36:04Z</time>
      </trkpt>
      <trkpt lat="45.63962" lon="6.58718">
        <ele>1637.6</ele>
        <time>2018-12-04T08:36:17Z</time>
      </trkpt>
      <trkpt lat="45.63946" lon="6.58728">
        <ele>1638.4</ele>
        <time>2018-12-04T08:36:33Z</time>
      </trkpt>
      <trkpt lat="45.63928" lon="6.58738">
        <ele>1638.5</ele>
        <time>2018-12-04T08:36:46Z</time>
      </trkpt>
      <trkpt lat="45.63909" lon="6.58741">
        <ele>1638.4</ele>
        <time>2018-12-04T08:37:01Z</time>
      </trkpt>
      <trkpt lat="45.63891" lon="6.58738">
        <ele>1638.2</ele>
        <time>2018-12-04T08:37:14Z</time>
      </trkpt>
      <trkpt lat="45.63872" lon="6.58739">
        <ele>1638.7</ele>
        <time>2018-12-04T08:37:28Z</time>
      </trkpt>
      <trkpt lat="45.63854" lon="6.58749">
        <ele>1639.8</ele>
        <time>2018-12-04T08:37:44Z</time>
      </trkpt>
      <trkpt lat="45.63836" lon="6.58758">
        <ele>1640.2</ele>
        <time>2018-12-04T08:37:59Z</time>
      </trkpt>
      <trkpt lat="45.63818" lon="6.58763">
        <ele>1640.7</ele>
        <time>2018-12-04T08:38:16Z</time>
      </trkpt>
      <trkpt lat="45.638" lon="6.58771">
        <ele>1641.6</ele>
        <time>2018-12-04T08:38:35Z</time>
      </trkpt>
      <trkpt lat="45.63789" lon="6.58792">
        <ele>1642.3</ele>
        <time>2018-12-04T08:38:49Z</time>
      </trkpt>
      <trkpt lat="45.63773" lon="6.58808">
        <ele>1642.9</ele>
        <time>2018-12-04T08:39:03Z</time>
      </trkpt>
      <trkpt lat="45.63755" lon="6.58812">
        <ele>1644.5</ele>
        <time>2018-12-04T08:39:21Z</time>
      </trkpt>
      <trkpt lat="45.63739" lon="6.58823">
        <ele>1648.7</ele>
        <time>2018-12-04T08:39:59Z</time>
      </trkpt>
      <trkpt lat="45.63721" lon="6.58826">
        <ele>1652.8</ele>
        <time>2018-12-04T08:40:32Z</time>
      </trkpt>
      <trkpt lat="45.63704" lon="6.58833">
        <ele>1659.6</ele>
        <time>2018-12-04T08:41:14Z</time>
      </trkpt>
      <trkpt lat="45.63697" lon="6.58858">
        <ele>1663.8</ele>
        <time>2018-12-04T08:41:45Z</time>
      </trkpt>
      <trkpt lat="45.6368" lon="6.58869">
        <ele>1669.9</ele>
        <time>2018-12-04T08:42:26Z</time>
      </trkpt>
      <trkpt lat="45.63675" lon="6.58895">
        <ele>1674.2</ele>
        <time>2018-12-04T08:43:02Z</time>
      </trkpt>
      <trkpt lat="45.63666" lon="6.58918">
        <ele>1679.1</ele>
        <time>2018-12-04T08:43:38Z</time>
      </trkpt>
      <trkpt lat="45.6365" lon="6.5893">
        <ele>1683.1</ele>
        <time>2018-12-04T08:43:56Z</time>
      </trkpt>
      <trkpt lat="45.63632" lon="6.58941">
        <ele>1685.5</ele>
        <time>2018-12-04T08:44:11Z</time>
      </trkpt>
      <trkpt lat="45.63615" lon="6.5895">
        <ele>1687.1</ele>
        <time>2018-12-04T08:44:25Z</time>
      </trkpt>
      <trkpt lat="45.636" lon="6.58966">
        <ele>1693.8</ele>
        <time>2018-12-04T08:48:44Z</time>
      </trkpt>
      <trkpt lat="45.63589" lon="6.58987">
        <ele>1695</ele>
        <time>2018-12-04T08:49:04Z</time>
      </trkpt>
      <trkpt lat="45.63574" lon="6.59003">
        <ele>1696.1</ele>
        <time>2018-12-04T08:49:24Z</time>
      </trkpt>
      <trkpt lat="45.63558" lon="6.59019">
        <ele>1697.1</ele>
        <time>2018-12-04T08:49:41Z</time>
      </trkpt>
      <trkpt lat="45.63543" lon="6.59034">
        <ele>1697.9</ele>
        <time>2018-12-04T08:49:57Z</time>
      </trkpt>
      <trkpt lat="45.63526" lon="6.59045">
        <ele>1699.1</ele>
        <time>2018-12-04T08:50:13Z</time>
      </trkpt>
      <trkpt lat="45.6351" lon="6.59058">
        <ele>1700.6</ele>
        <time>2018-12-04T08:50:28Z</time>
      </trkpt>
      <trkpt lat="45.63495" lon="6.59073">
        <ele>1702.1</ele>
        <time>2018-12-04T08:50:45Z</time>
      </trkpt>
      <trkpt lat="45.63479" lon="6.59087">
        <ele>1704.7</ele>
        <time>2018-12-04T08:51:03Z</time>
      </trkpt>
      <trkpt lat="45.63463" lon="6.59102">
        <ele>1707.9</ele>
        <time>2018-12-04T08:51:23Z</time>
      </trkpt>
      <trkpt lat="45.63445" lon="6.59108">
        <ele>1709.4</ele>
        <time>2018-12-04T08:51:43Z</time>
      </trkpt>
      <trkpt lat="45.63427" lon="6.59114">
        <ele>1710.5</ele>
        <time>2018-12-04T08:52:02Z</time>
      </trkpt>
      <trkpt lat="45.63409" lon="6.59118">
        <ele>1712.5</ele>
        <time>2018-12-04T08:52:20Z</time>
      </trkpt>
      <trkpt lat="45.63393" lon="6.5913">
        <ele>1714.7</ele>
        <time>2018-12-04T08:52:41Z</time>
      </trkpt>
      <trkpt lat="45.63376" lon="6.59141">
        <ele>1716.7</ele>
        <time>2018-12-04T08:53:00Z</time>
      </trkpt>
      <trkpt lat="45.6336" lon="6.59153">
        <ele>1718.6</ele>
        <time>2018-12-04T08:53:17Z</time>
      </trkpt>
      <trkpt lat="45.63344" lon="6.59167">
        <ele>1720.9</ele>
        <time>2018-12-04T08:53:34Z</time>
      </trkpt>
      <trkpt lat="45.63327" lon="6.59176">
        <ele>1722.4</ele>
        <time>2018-12-04T08:53:54Z</time>
      </trkpt>
      <trkpt lat="45.6331" lon="6.59185">
        <ele>1723.3</ele>
        <time>2018-12-04T08:54:14Z</time>
      </trkpt>
      <trkpt lat="45.63291" lon="6.59191">
        <ele>1725.6</ele>
        <time>2018-12-04T08:54:34Z</time>
      </trkpt>
      <trkpt lat="45.63282" lon="6.59214">
        <ele>1731.6</ele>
        <time>2018-12-04T08:55:17Z</time>
      </trkpt>
      <trkpt lat="45.63271" lon="6.59234">
        <ele>1738.4</ele>
        <time>2018-12-04T08:56:00Z</time>
      </trkpt>
      <trkpt lat="45.63261" lon="6.59256">
        <ele>1743.6</ele>
        <time>2018-12-04T08:56:31Z</time>
      </trkpt>
      <trkpt lat="45.63253" lon="6.5928">
        <ele>1748.8</ele>
        <time>2018-12-04T08:57:10Z</time>
      </trkpt>
      <trkpt lat="45.63234" lon="6.59283">
        <ele>1750.3</ele>
        <time>2018-12-04T08:57:38Z</time>
      </trkpt>
      <trkpt lat="45.63222" lon="6.59303">
        <ele>1752</ele>
        <time>2018-12-04T08:57:59Z</time>
      </trkpt>
      <trkpt lat="45.6321" lon="6.59323">
        <ele>1753.4</ele>
        <time>2018-12-04T08:58:15Z</time>
      </trkpt>
      <trkpt lat="45.63207" lon="6.5935">
        <ele>1753.8</ele>
        <time>2018-12-04T08:58:43Z</time>
      </trkpt>
      <trkpt lat="45.63199" lon="6.59373">
        <ele>1755.3</ele>
        <time>2018-12-04T08:58:58Z</time>
      </trkpt>
      <trkpt lat="45.63193" lon="6.59398">
        <ele>1757.4</ele>
        <time>2018-12-04T08:59:16Z</time>
      </trkpt>
      <trkpt lat="45.63188" lon="6.59424">
        <ele>1759.5</ele>
        <time>2018-12-04T08:59:33Z</time>
      </trkpt>
      <trkpt lat="45.63183" lon="6.59449">
        <ele>1762.5</ele>
        <time>2018-12-04T08:59:53Z</time>
      </trkpt>
      <trkpt lat="45.63179" lon="6.59474">
        <ele>1764.5</ele>
        <time>2018-12-04T09:00:15Z</time>
      </trkpt>
      <trkpt lat="45.63162" lon="6.59482">
        <ele>1767.4</ele>
        <time>2018-12-04T09:00:44Z</time>
      </trkpt>
      <trkpt lat="45.63157" lon="6.59507">
        <ele>1771.5</ele>
        <time>2018-12-04T09:01:15Z</time>
      </trkpt>
      <trkpt lat="45.63148" lon="6.5953">
        <ele>1775.3</ele>
        <time>2018-12-04T09:01:34Z</time>
      </trkpt>
      <trkpt lat="45.63139" lon="6.59553">
        <ele>1777.1</ele>
        <time>2018-12-04T09:01:52Z</time>
      </trkpt>
      <trkpt lat="45.6313" lon="6.59576">
        <ele>1780.2</ele>
        <time>2018-12-04T09:02:20Z</time>
      </trkpt>
      <trkpt lat="45.63114" lon="6.59564">
        <ele>1777.6</ele>
        <time>2018-12-04T09:02:48Z</time>
      </trkpt>
      <trkpt lat="45.63096" lon="6.59555">
        <ele>1778.8</ele>
        <time>2018-12-04T09:03:08Z</time>
      </trkpt>
      <trkpt lat="45.6308" lon="6.59565">
        <ele>1780.4</ele>
        <time>2018-12-04T09:03:37Z</time>
      </trkpt>
      <trkpt lat="45.63063" lon="6.59552">
        <ele>1781</ele>
        <time>2018-12-04T09:04:05Z</time>
      </trkpt>
      <trkpt lat="45.6305" lon="6.59531">
        <ele>1781.6</ele>
        <time>2018-12-04T09:04:23Z</time>
      </trkpt>
      <trkpt lat="45.63037" lon="6.59512">
        <ele>1783</ele>
        <time>2018-12-04T09:04:39Z</time>
      </trkpt>
      <trkpt lat="45.6302" lon="6.59523">
        <ele>1783</ele>
        <time>2018-12-04T09:05:14Z</time>
      </trkpt>
      <trkpt lat="45.63003" lon="6.59533">
        <ele>1783.7</ele>
        <time>2018-12-04T09:05:38Z</time>
      </trkpt>
      <trkpt lat="45.62995" lon="6.59509">
        <ele>1788.5</ele>
        <time>2018-12-04T09:06:53Z</time>
      </trkpt>
      <trkpt lat="45.62988" lon="6.59485">
        <ele>1789.2</ele>
        <time>2018-12-04T09:07:24Z</time>
      </trkpt>
      <trkpt lat="45.62973" lon="6.59501">
        <ele>1789.9</ele>
        <time>2018-12-04T09:08:00Z</time>
      </trkpt>
      <trkpt lat="45.6296" lon="6.59519">
        <ele>1792.1</ele>
        <time>2018-12-04T09:08:25Z</time>
      </trkpt>
      <trkpt lat="45.62944" lon="6.59531">
        <ele>1794.4</ele>
        <time>2018-12-04T09:08:50Z</time>
      </trkpt>
      <trkpt lat="45.62928" lon="6.59543">
        <ele>1796.8</ele>
        <time>2018-12-04T09:09:20Z</time>
      </trkpt>
      <trkpt lat="45.6291" lon="6.59548">
        <ele>1800</ele>
        <time>2018-12-04T09:10:02Z</time>
      </trkpt>
      <trkpt lat="45.62897" lon="6.59566">
        <ele>1803.2</ele>
        <time>2018-12-04T09:10:28Z</time>
      </trkpt>
      <trkpt lat="45.62879" lon="6.59572">
        <ele>1808.7</ele>
        <time>2018-12-04T09:11:31Z</time>
      </trkpt>
      <trkpt lat="45.62863" lon="6.5956">
        <ele>1812.8</ele>
        <time>2018-12-04T09:12:07Z</time>
      </trkpt>
      <trkpt lat="45.62848" lon="6.59575">
        <ele>1815.3</ele>
        <time>2018-12-04T09:12:38Z</time>
      </trkpt>
      <trkpt lat="45.62832" lon="6.5959">
        <ele>1824.6</ele>
        <time>2018-12-04T09:25:37Z</time>
      </trkpt>
      <trkpt lat="45.62815" lon="6.59599">
        <ele>1825.6</ele>
        <time>2018-12-04T09:26:04Z</time>
      </trkpt>
      <trkpt lat="45.62797" lon="6.59601">
        <ele>1826.1</ele>
        <time>2018-12-04T09:26:30Z</time>
      </trkpt>
      <trkpt lat="45.62784" lon="6.59619">
        <ele>1827.1</ele>
        <time>2018-12-04T09:26:52Z</time>
      </trkpt>
      <trkpt lat="45.62772" lon="6.59639">
        <ele>1827.8</ele>
        <time>2018-12-04T09:27:49Z</time>
      </trkpt>
      <trkpt lat="45.62761" lon="6.59661">
        <ele>1828.4</ele>
        <time>2018-12-04T09:28:11Z</time>
      </trkpt>
      <trkpt lat="45.62752" lon="6.59684">
        <ele>1829</ele>
        <time>2018-12-04T09:28:33Z</time>
      </trkpt>
      <trkpt lat="45.62745" lon="6.59708">
        <ele>1829.3</ele>
        <time>2018-12-04T09:28:53Z</time>
      </trkpt>
      <trkpt lat="45.62739" lon="6.59734">
        <ele>1829.7</ele>
        <time>2018-12-04T09:29:16Z</time>
      </trkpt>
      <trkpt lat="45.6273" lon="6.59757">
        <ele>1829.5</ele>
        <time>2018-12-04T09:29:39Z</time>
      </trkpt>
      <trkpt lat="45.62729" lon="6.59783">
        <ele>1832.2</ele>
        <time>2018-12-04T09:30:02Z</time>
      </trkpt>
      <trkpt lat="45.62726" lon="6.59808">
        <ele>1834.4</ele>
        <time>2018-12-04T09:30:29Z</time>
      </trkpt>
      <trkpt lat="45.62709" lon="6.59818">
        <ele>1838.3</ele>
        <time>2018-12-04T09:31:07Z</time>
      </trkpt>
      <trkpt lat="45.62706" lon="6.59843">
        <ele>1841.1</ele>
        <time>2018-12-04T09:31:39Z</time>
      </trkpt>
      <trkpt lat="45.62704" lon="6.59869">
        <ele>1844.8</ele>
        <time>2018-12-04T09:32:16Z</time>
      </trkpt>
      <trkpt lat="45.62699" lon="6.59894">
        <ele>1852.7</ele>
        <time>2018-12-04T09:33:18Z</time>
      </trkpt>
      <trkpt lat="45.62689" lon="6.59916">
        <ele>1861.8</ele>
        <time>2018-12-04T09:34:13Z</time>
      </trkpt>
      <trkpt lat="45.62681" lon="6.59939">
        <ele>1866.3</ele>
        <time>2018-12-04T09:34:56Z</time>
      </trkpt>
      <trkpt lat="45.62695" lon="6.59957">
        <ele>1873.7</ele>
        <time>2018-12-04T09:35:45Z</time>
      </trkpt>
      <trkpt lat="45.62692" lon="6.59983">
        <ele>1881.7</ele>
        <time>2018-12-04T09:36:37Z</time>
      </trkpt>
      <trkpt lat="45.62701" lon="6.60006">
        <ele>1887.2</ele>
        <time>2018-12-04T09:37:12Z</time>
      </trkpt>
      <trkpt lat="45.62698" lon="6.60032">
        <ele>1894.6</ele>
        <time>2018-12-04T09:38:45Z</time>
      </trkpt>
      <trkpt lat="45.6268" lon="6.6003">
        <ele>1897</ele>
        <time>2018-12-04T09:39:24Z</time>
      </trkpt>
      <trkpt lat="45.62661" lon="6.60029">
        <ele>1897.8</ele>
        <time>2018-12-04T09:39:48Z</time>
      </trkpt>
      <trkpt lat="45.62643" lon="6.60032">
        <ele>1899.4</ele>
        <time>2018-12-04T09:40:06Z</time>
      </trkpt>
      <trkpt lat="45.62625" lon="6.60039">
        <ele>1900.6</ele>
        <time>2018-12-04T09:40:28Z</time>
      </trkpt>
      <trkpt lat="45.62611" lon="6.60055">
        <ele>1901.9</ele>
        <time>2018-12-04T09:40:50Z</time>
      </trkpt>
      <trkpt lat="45.626" lon="6.60075">
        <ele>1904.2</ele>
        <time>2018-12-04T09:41:13Z</time>
      </trkpt>
      <trkpt lat="45.62589" lon="6.60097">
        <ele>1906.3</ele>
        <time>2018-12-04T09:41:37Z</time>
      </trkpt>
      <trkpt lat="45.62578" lon="6.60117">
        <ele>1907.1</ele>
        <time>2018-12-04T09:42:00Z</time>
      </trkpt>
      <trkpt lat="45.6256" lon="6.60109">
        <ele>1907.4</ele>
        <time>2018-12-04T09:42:23Z</time>
      </trkpt>
      <trkpt lat="45.62549" lon="6.60088">
        <ele>1908.2</ele>
        <time>2018-12-04T09:42:49Z</time>
      </trkpt>
      <trkpt lat="45.62545" lon="6.60062">
        <ele>1909.1</ele>
        <time>2018-12-04T09:43:14Z</time>
      </trkpt>
      <trkpt lat="45.62527" lon="6.60058">
        <ele>1913.3</ele>
        <time>2018-12-04T09:44:01Z</time>
      </trkpt>
      <trkpt lat="45.62513" lon="6.60076">
        <ele>1915.8</ele>
        <time>2018-12-04T09:44:35Z</time>
      </trkpt>
      <trkpt lat="45.62497" lon="6.60089">
        <ele>1920.9</ele>
        <time>2018-12-04T09:45:22Z</time>
      </trkpt>
      <trkpt lat="45.6248" lon="6.60095">
        <ele>1924.1</ele>
        <time>2018-12-04T09:46:00Z</time>
      </trkpt>
      <trkpt lat="45.62467" lon="6.60113">
        <ele>1930.3</ele>
        <time>2018-12-04T09:46:36Z</time>
      </trkpt>
      <trkpt lat="45.62448" lon="6.60112">
        <ele>1933.5</ele>
        <time>2018-12-04T09:47:32Z</time>
      </trkpt>
      <trkpt lat="45.6243" lon="6.60114">
        <ele>1940.6</ele>
        <time>2018-12-04T09:48:29Z</time>
      </trkpt>
      <trkpt lat="45.62413" lon="6.60105">
        <ele>1943.6</ele>
        <time>2018-12-04T09:48:58Z</time>
      </trkpt>
      <trkpt lat="45.62395" lon="6.60096">
        <ele>1946.4</ele>
        <time>2018-12-04T09:50:18Z</time>
      </trkpt>
      <trkpt lat="45.6238" lon="6.60081">
        <ele>1946.1</ele>
        <time>2018-12-04T09:50:41Z</time>
      </trkpt>
      <trkpt lat="45.62369" lon="6.60061">
        <ele>1947</ele>
        <time>2018-12-04T09:51:10Z</time>
      </trkpt>
      <trkpt lat="45.62354" lon="6.60046">
        <ele>1947.8</ele>
        <time>2018-12-04T09:51:33Z</time>
      </trkpt>
      <trkpt lat="45.62339" lon="6.6003">
        <ele>1950.1</ele>
        <time>2018-12-04T09:52:01Z</time>
      </trkpt>
      <trkpt lat="45.62321" lon="6.60023">
        <ele>1950.3</ele>
        <time>2018-12-04T09:52:31Z</time>
      </trkpt>
      <trkpt lat="45.62305" lon="6.60011">
        <ele>1951.3</ele>
        <time>2018-12-04T09:53:09Z</time>
      </trkpt>
      <trkpt lat="45.62286" lon="6.60009">
        <ele>1954.2</ele>
        <time>2018-12-04T09:53:45Z</time>
      </trkpt>
      <trkpt lat="45.62276" lon="6.59988">
        <ele>1956.4</ele>
        <time>2018-12-04T09:54:23Z</time>
      </trkpt>
      <trkpt lat="45.62261" lon="6.59971">
        <ele>1958.2</ele>
        <time>2018-12-04T09:54:45Z</time>
      </trkpt>
      <trkpt lat="45.62246" lon="6.59953">
        <ele>1958.1</ele>
        <time>2018-12-04T09:55:15Z</time>
      </trkpt>
      <trkpt lat="45.62228" lon="6.5996">
        <ele>1958.6</ele>
        <time>2018-12-04T09:55:50Z</time>
      </trkpt>
      <trkpt lat="45.62216" lon="6.59981">
        <ele>1961.9</ele>
        <time>2018-12-04T09:56:29Z</time>
      </trkpt>
      <trkpt lat="45.62201" lon="6.59995">
        <ele>1962.7</ele>
        <time>2018-12-04T09:57:06Z</time>
      </trkpt>
      <trkpt lat="45.62185" lon="6.60007">
        <ele>1969.6</ele>
        <time>2018-12-04T09:57:54Z</time>
      </trkpt>
      <trkpt lat="45.62167" lon="6.60012">
        <ele>1972.9</ele>
        <time>2018-12-04T09:58:20Z</time>
      </trkpt>
      <trkpt lat="45.62163" lon="6.60038">
        <ele>1980.3</ele>
        <time>2018-12-04T09:59:06Z</time>
      </trkpt>
      <trkpt lat="45.62145" lon="6.6003">
        <ele>1985.8</ele>
        <time>2018-12-04T09:59:41Z</time>
      </trkpt>
      <trkpt lat="45.62127" lon="6.60035">
        <ele>1989.7</ele>
        <time>2018-12-04T10:00:24Z</time>
      </trkpt>
      <trkpt lat="45.62111" lon="6.60021">
        <ele>1995.5</ele>
        <time>2018-12-04T10:01:14Z</time>
      </trkpt>
      <trkpt lat="45.62106" lon="6.59995">
        <ele>2005.9</ele>
        <time>2018-12-04T10:02:41Z</time>
      </trkpt>
      <trkpt lat="45.62088" lon="6.60002">
        <ele>2010.4</ele>
        <time>2018-12-04T10:03:27Z</time>
      </trkpt>
      <trkpt lat="45.62072" lon="6.60012">
        <ele>2013.3</ele>
        <time>2018-12-04T10:04:00Z</time>
      </trkpt>
      <trkpt lat="45.62054" lon="6.60006">
        <ele>2017.9</ele>
        <time>2018-12-04T10:04:36Z</time>
      </trkpt>
      <trkpt lat="45.62036" lon="6.60006">
        <ele>2022.6</ele>
        <time>2018-12-04T10:05:34Z</time>
      </trkpt>
      <trkpt lat="45.62019" lon="6.60014">
        <ele>2026.7</ele>
        <time>2018-12-04T10:06:29Z</time>
      </trkpt>
      <trkpt lat="45.62001" lon="6.60009">
        <ele>2037.3</ele>
        <time>2018-12-04T10:07:42Z</time>
      </trkpt>
      <trkpt lat="45.61985" lon="6.59996">
        <ele>2048.4</ele>
        <time>2018-12-04T10:08:52Z</time>
      </trkpt>
      <trkpt lat="45.61973" lon="6.59978">
        <ele>2057.8</ele>
        <time>2018-12-04T10:11:52Z</time>
      </trkpt>
      <trkpt lat="45.61959" lon="6.5996">
        <ele>2058.6</ele>
        <time>2018-12-04T10:12:15Z</time>
      </trkpt>
      <trkpt lat="45.61942" lon="6.59971">
        <ele>2060.9</ele>
        <time>2018-12-04T10:12:42Z</time>
      </trkpt>
      <trkpt lat="45.61926" lon="6.59984">
        <ele>2063.9</ele>
        <time>2018-12-04T10:13:05Z</time>
      </trkpt>
      <trkpt lat="45.61909" lon="6.59992">
        <ele>2065.6</ele>
        <time>2018-12-04T10:13:29Z</time>
      </trkpt>
      <trkpt lat="45.61892" lon="6.60002">
        <ele>2068</ele>
        <time>2018-12-04T10:13:51Z</time>
      </trkpt>
      <trkpt lat="45.61875" lon="6.6001">
        <ele>2068.8</ele>
        <time>2018-12-04T10:14:13Z</time>
      </trkpt>
      <trkpt lat="45.6186" lon="6.60026">
        <ele>2070.9</ele>
        <time>2018-12-04T10:14:35Z</time>
      </trkpt>
      <trkpt lat="45.61849" lon="6.60046">
        <ele>2071.3</ele>
        <time>2018-12-04T10:14:54Z</time>
      </trkpt>
      <trkpt lat="45.61835" lon="6.60064">
        <ele>2070.2</ele>
        <time>2018-12-04T10:15:16Z</time>
      </trkpt>
      <trkpt lat="45.61823" lon="6.60084">
        <ele>2070.6</ele>
        <time>2018-12-04T10:15:40Z</time>
      </trkpt>
      <trkpt lat="45.61813" lon="6.60106">
        <ele>2073.8</ele>
        <time>2018-12-04T10:16:03Z</time>
      </trkpt>
      <trkpt lat="45.61804" lon="6.60129">
        <ele>2077.4</ele>
        <time>2018-12-04T10:16:24Z</time>
      </trkpt>
      <trkpt lat="45.61794" lon="6.60152">
        <ele>2079.8</ele>
        <time>2018-12-04T10:16:46Z</time>
      </trkpt>
      <trkpt lat="45.61784" lon="6.60174">
        <ele>2081.3</ele>
        <time>2018-12-04T10:17:08Z</time>
      </trkpt>
      <trkpt lat="45.61771" lon="6.60192">
        <ele>2086.3</ele>
        <time>2018-12-04T10:17:33Z</time>
      </trkpt>
      <trkpt lat="45.61757" lon="6.6021">
        <ele>2088.6</ele>
        <time>2018-12-04T10:17:53Z</time>
      </trkpt>
      <trkpt lat="45.61743" lon="6.60227">
        <ele>2090.3</ele>
        <time>2018-12-04T10:18:13Z</time>
      </trkpt>
      <trkpt lat="45.61731" lon="6.60247">
        <ele>2091.5</ele>
        <time>2018-12-04T10:18:33Z</time>
      </trkpt>
      <trkpt lat="45.61717" lon="6.60265">
        <ele>2093.8</ele>
        <time>2018-12-04T10:18:56Z</time>
      </trkpt>
      <trkpt lat="45.61714" lon="6.60291">
        <ele>2099</ele>
        <time>2018-12-04T10:20:43Z</time>
      </trkpt>
      <trkpt lat="45.61705" lon="6.60314">
        <ele>2104.6</ele>
        <time>2018-12-04T10:23:35Z</time>
      </trkpt>
      <trkpt lat="45.61689" lon="6.60327">
        <ele>2106.8</ele>
        <time>2018-12-04T10:28:44Z</time>
      </trkpt>
      <trkpt lat="45.61672" lon="6.60338">
        <ele>2106.7</ele>
        <time>2018-12-04T10:29:07Z</time>
      </trkpt>
      <trkpt lat="45.61656" lon="6.60349">
        <ele>2106.9</ele>
        <time>2018-12-04T10:29:31Z</time>
      </trkpt>
      <trkpt lat="45.6164" lon="6.60362">
        <ele>2107.7</ele>
        <time>2018-12-04T10:29:55Z</time>
      </trkpt>
      <trkpt lat="45.61622" lon="6.6036">
        <ele>2108</ele>
        <time>2018-12-04T10:30:20Z</time>
      </trkpt>
      <trkpt lat="45.61604" lon="6.6036">
        <ele>2107.6</ele>
        <time>2018-12-04T10:30:55Z</time>
      </trkpt>
      <trkpt lat="45.61586" lon="6.6036">
        <ele>2107.7</ele>
        <time>2018-12-04T10:31:18Z</time>
      </trkpt>
      <trkpt lat="45.61569" lon="6.60351">
        <ele>2109.1</ele>
        <time>2018-12-04T10:31:47Z</time>
      </trkpt>
      <trkpt lat="45.61561" lon="6.60327">
        <ele>2112.2</ele>
        <time>2018-12-04T10:32:19Z</time>
      </trkpt>
      <trkpt lat="45.61557" lon="6.60301">
        <ele>2115.6</ele>
        <time>2018-12-04T10:32:50Z</time>
      </trkpt>
      <trkpt lat="45.61549" lon="6.60278">
        <ele>2118.2</ele>
        <time>2018-12-04T10:33:27Z</time>
      </trkpt>
      <trkpt lat="45.61531" lon="6.60284">
        <ele>2120.6</ele>
        <time>2018-12-04T10:33:56Z</time>
      </trkpt>
      <trkpt lat="45.61515" lon="6.60296">
        <ele>2122</ele>
        <time>2018-12-04T10:34:24Z</time>
      </trkpt>
      <trkpt lat="45.61498" lon="6.60306">
        <ele>2123.5</ele>
        <time>2018-12-04T10:34:49Z</time>
      </trkpt>
      <trkpt lat="45.6148" lon="6.60309">
        <ele>2124.7</ele>
        <time>2018-12-04T10:35:14Z</time>
      </trkpt>
      <trkpt lat="45.61464" lon="6.6032">
        <ele>2124.6</ele>
        <time>2018-12-04T10:35:38Z</time>
      </trkpt>
      <trkpt lat="45.61449" lon="6.60334">
        <ele>2124.6</ele>
        <time>2018-12-04T10:36:03Z</time>
      </trkpt>
      <trkpt lat="45.61432" lon="6.60322">
        <ele>2125.3</ele>
        <time>2018-12-04T10:36:47Z</time>
      </trkpt>
      <trkpt lat="45.61421" lon="6.60301">
        <ele>2126.4</ele>
        <time>2018-12-04T10:37:15Z</time>
      </trkpt>
      <trkpt lat="45.61413" lon="6.60278">
        <ele>2126.2</ele>
        <time>2018-12-04T10:37:53Z</time>
      </trkpt>
      <trkpt lat="45.61402" lon="6.60258">
        <ele>2125.9</ele>
        <time>2018-12-04T10:38:20Z</time>
      </trkpt>
      <trkpt lat="45.61387" lon="6.60243">
        <ele>2127.8</ele>
        <time>2018-12-04T10:38:56Z</time>
      </trkpt>
      <trkpt lat="45.6139" lon="6.60216">
        <ele>2130.3</ele>
        <time>2018-12-04T10:39:36Z</time>
      </trkpt>
      <trkpt lat="45.61389" lon="6.60189">
        <ele>2132.5</ele>
        <time>2018-12-04T10:40:14Z</time>
      </trkpt>
      <trkpt lat="45.6137" lon="6.60191">
        <ele>2136.9</ele>
        <time>2018-12-04T10:40:53Z</time>
      </trkpt>
      <trkpt lat="45.61363" lon="6.60166">
        <ele>2142</ele>
        <time>2018-12-04T10:41:34Z</time>
      </trkpt>
      <trkpt lat="45.6135" lon="6.60149">
        <ele>2144.7</ele>
        <time>2018-12-04T10:42:28Z</time>
      </trkpt>
      <trkpt lat="45.61336" lon="6.60133">
        <ele>2148.6</ele>
        <time>2018-12-04T10:42:59Z</time>
      </trkpt>
      <trkpt lat="45.61326" lon="6.60111">
        <ele>2152.5</ele>
        <time>2018-12-04T10:43:34Z</time>
      </trkpt>
      <trkpt lat="45.61325" lon="6.60085">
        <ele>2154.3</ele>
        <time>2018-12-04T10:44:01Z</time>
      </trkpt>
      <trkpt lat="45.61321" lon="6.60059">
        <ele>2155.8</ele>
        <time>2018-12-04T10:44:31Z</time>
      </trkpt>
      <trkpt lat="45.61319" lon="6.60033">
        <ele>2157.6</ele>
        <time>2018-12-04T10:45:10Z</time>
      </trkpt>
      <trkpt lat="45.61314" lon="6.60008">
        <ele>2162.5</ele>
        <time>2018-12-04T10:45:54Z</time>
      </trkpt>
      <trkpt lat="45.61298" lon="6.59996">
        <ele>2167.8</ele>
        <time>2018-12-04T10:46:48Z</time>
      </trkpt>
      <trkpt lat="45.61281" lon="6.59987">
        <ele>2175</ele>
        <time>2018-12-04T10:47:37Z</time>
      </trkpt>
      <trkpt lat="45.61263" lon="6.59986">
        <ele>2179.9</ele>
        <time>2018-12-04T10:48:37Z</time>
      </trkpt>
      <trkpt lat="45.61245" lon="6.59978">
        <ele>2187.8</ele>
        <time>2018-12-04T10:50:01Z</time>
      </trkpt>
      <trkpt lat="45.6123" lon="6.59965">
        <ele>2193</ele>
        <time>2018-12-04T10:50:37Z</time>
      </trkpt>
      <trkpt lat="45.61214" lon="6.59951">
        <ele>2201.6</ele>
        <time>2018-12-04T10:51:33Z</time>
      </trkpt>
      <trkpt lat="45.61203" lon="6.5993">
        <ele>2207.4</ele>
        <time>2018-12-04T10:52:16Z</time>
      </trkpt>
      <trkpt lat="45.61196" lon="6.59906">
        <ele>2211.5</ele>
        <time>2018-12-04T10:54:34Z</time>
      </trkpt>
      <trkpt lat="45.6119" lon="6.59881">
        <ele>2211.4</ele>
        <time>2018-12-04T10:55:00Z</time>
      </trkpt>
      <trkpt lat="45.6118" lon="6.59859">
        <ele>2213.5</ele>
        <time>2018-12-04T10:55:32Z</time>
      </trkpt>
      <trkpt lat="45.6117" lon="6.59837">
        <ele>2218.6</ele>
        <time>2018-12-04T10:56:08Z</time>
      </trkpt>
      <trkpt lat="45.61163" lon="6.59813">
        <ele>2223.8</ele>
        <time>2018-12-04T10:56:43Z</time>
      </trkpt>
      <trkpt lat="45.61171" lon="6.59789">
        <ele>2228.9</ele>
        <time>2018-12-04T10:57:39Z</time>
      </trkpt>
      <trkpt lat="45.61167" lon="6.59764">
        <ele>2232.8</ele>
        <time>2018-12-04T10:58:29Z</time>
      </trkpt>
      <trkpt lat="45.61155" lon="6.59745">
        <ele>2235</ele>
        <time>2018-12-04T10:59:05Z</time>
      </trkpt>
      <trkpt lat="45.61172" lon="6.59736">
        <ele>2240.4</ele>
        <time>2018-12-04T10:59:51Z</time>
      </trkpt>
      <trkpt lat="45.61161" lon="6.59715">
        <ele>2243</ele>
        <time>2018-12-04T11:00:29Z</time>
      </trkpt>
      <trkpt lat="45.61148" lon="6.59696">
        <ele>2245.6</ele>
        <time>2018-12-04T11:01:00Z</time>
      </trkpt>
      <trkpt lat="45.61133" lon="6.5968">
        <ele>2249.8</ele>
        <time>2018-12-04T11:01:34Z</time>
      </trkpt>
      <trkpt lat="45.6112" lon="6.59662">
        <ele>2251.1</ele>
        <time>2018-12-04T11:02:13Z</time>
      </trkpt>
      <trkpt lat="45.61136" lon="6.59652">
        <ele>2258.2</ele>
        <time>2018-12-04T11:02:51Z</time>
      </trkpt>
      <trkpt lat="45.61155" lon="6.59646">
        <ele>2263.5</ele>
        <time>2018-12-04T11:03:26Z</time>
      </trkpt>
      <trkpt lat="45.61147" lon="6.59621">
        <ele>2267.2</ele>
        <time>2018-12-04T11:04:33Z</time>
      </trkpt>
      <trkpt lat="45.61135" lon="6.59601">
        <ele>2268.8</ele>
        <time>2018-12-04T11:05:03Z</time>
      </trkpt>
      <trkpt lat="45.61131" lon="6.59576">
        <ele>2272.3</ele>
        <time>2018-12-04T11:05:36Z</time>
      </trkpt>
      <trkpt lat="45.61149" lon="6.5957">
        <ele>2276.8</ele>
        <time>2018-12-04T11:07:42Z</time>
      </trkpt>
      <trkpt lat="45.61165" lon="6.59556">
        <ele>2277.7</ele>
        <time>2018-12-04T11:08:07Z</time>
      </trkpt>
      <trkpt lat="45.61169" lon="6.5953">
        <ele>2277.5</ele>
        <time>2018-12-04T11:08:37Z</time>
      </trkpt>
      <trkpt lat="45.61166" lon="6.59505">
        <ele>2277.3</ele>
        <time>2018-12-04T11:09:02Z</time>
      </trkpt>
      <trkpt lat="45.61164" lon="6.59479">
        <ele>2278.3</ele>
        <time>2018-12-04T11:09:26Z</time>
      </trkpt>
      <trkpt lat="45.61159" lon="6.59454">
        <ele>2279.8</ele>
        <time>2018-12-04T11:09:53Z</time>
      </trkpt>
      <trkpt lat="45.61147" lon="6.59435">
        <ele>2280.9</ele>
        <time>2018-12-04T11:10:23Z</time>
      </trkpt>
      <trkpt lat="45.61159" lon="6.59415">
        <ele>2286.1</ele>
        <time>2018-12-04T11:11:03Z</time>
      </trkpt>
      <trkpt lat="45.61152" lon="6.5939">
        <ele>2288.7</ele>
        <time>2018-12-04T11:11:32Z</time>
      </trkpt>
      <trkpt lat="45.61136" lon="6.59377">
        <ele>2289.2</ele>
        <time>2018-12-04T11:11:57Z</time>
      </trkpt>
      <trkpt lat="45.61148" lon="6.59356">
        <ele>2292.6</ele>
        <time>2018-12-04T11:12:24Z</time>
      </trkpt>
      <trkpt lat="45.61152" lon="6.59331">
        <ele>2294.9</ele>
        <time>2018-12-04T11:13:29Z</time>
      </trkpt>
      <trkpt lat="45.61155" lon="6.59306">
        <ele>2299.7</ele>
        <time>2018-12-04T11:17:11Z</time>
      </trkpt>
      <trkpt lat="45.61149" lon="6.59281">
        <ele>2300.2</ele>
        <time>2018-12-04T11:18:38Z</time>
      </trkpt>
      <trkpt lat="45.61142" lon="6.59257">
        <ele>2304.1</ele>
        <time>2018-12-04T11:19:22Z</time>
      </trkpt>
      <trkpt lat="45.61133" lon="6.59235">
        <ele>2307.7</ele>
        <time>2018-12-04T11:20:16Z</time>
      </trkpt>
      <trkpt lat="45.61116" lon="6.59227">
        <ele>2314.3</ele>
        <time>2018-12-04T11:21:16Z</time>
      </trkpt>
      <trkpt lat="45.61097" lon="6.59226">
        <ele>2320.6</ele>
        <time>2018-12-04T11:22:28Z</time>
      </trkpt>
      <trkpt lat="45.61089" lon="6.59202">
        <ele>2324.8</ele>
        <time>2018-12-04T11:22:59Z</time>
      </trkpt>
      <trkpt lat="45.61075" lon="6.59185">
        <ele>2327.8</ele>
        <time>2018-12-04T11:24:18Z</time>
      </trkpt>
      <trkpt lat="45.61061" lon="6.59169">
        <ele>2329.8</ele>
        <time>2018-12-04T11:25:52Z</time>
      </trkpt>
      <trkpt lat="45.61044" lon="6.5916">
        <ele>2330.6</ele>
        <time>2018-12-04T11:26:17Z</time>
      </trkpt>
      <trkpt lat="45.61026" lon="6.59157">
        <ele>2332.9</ele>
        <time>2018-12-04T11:26:53Z</time>
      </trkpt>
      <trkpt lat="45.61015" lon="6.59136">
        <ele>2337.6</ele>
        <time>2018-12-04T11:27:42Z</time>
      </trkpt>
      <trkpt lat="45.60997" lon="6.59127">
        <ele>2341.5</ele>
        <time>2018-12-04T11:28:33Z</time>
      </trkpt>
      <trkpt lat="45.60991" lon="6.59103">
        <ele>2346.3</ele>
        <time>2018-12-04T11:29:10Z</time>
      </trkpt>
      <trkpt lat="45.60977" lon="6.59085">
        <ele>2349.4</ele>
        <time>2018-12-04T11:29:41Z</time>
      </trkpt>
      <trkpt lat="45.60978" lon="6.59059">
        <ele>2353.9</ele>
        <time>2018-12-04T11:30:13Z</time>
      </trkpt>
      <trkpt lat="45.6096" lon="6.59052">
        <ele>2359.3</ele>
        <time>2018-12-04T11:31:00Z</time>
      </trkpt>
      <trkpt lat="45.60944" lon="6.59039">
        <ele>2363.6</ele>
        <time>2018-12-04T11:32:59Z</time>
      </trkpt>
      <trkpt lat="45.60933" lon="6.59018">
        <ele>2366.2</ele>
        <time>2018-12-04T11:33:26Z</time>
      </trkpt>
      <trkpt lat="45.60925" lon="6.58995">
        <ele>2369.4</ele>
        <time>2018-12-04T11:33:59Z</time>
      </trkpt>
      <trkpt lat="45.60915" lon="6.58972">
        <ele>2374.4</ele>
        <time>2018-12-04T11:34:41Z</time>
      </trkpt>
      <trkpt lat="45.60923" lon="6.58995">
        <ele>2382.4</ele>
        <time>2018-12-04T11:43:25Z</time>
      </trkpt>
      <trkpt lat="45.60935" lon="6.59015">
        <ele>2379.6</ele>
        <time>2018-12-04T11:43:48Z</time>
      </trkpt>
      <trkpt lat="45.60945" lon="6.59036">
        <ele>2376.4</ele>
        <time>2018-12-04T11:44:14Z</time>
      </trkpt>
      <trkpt lat="45.60961" lon="6.5905">
        <ele>2373.6</ele>
        <time>2018-12-04T11:44:36Z</time>
      </trkpt>
      <trkpt lat="45.60977" lon="6.59063">
        <ele>2368.2</ele>
        <time>2018-12-04T11:45:01Z</time>
      </trkpt>
      <trkpt lat="45.60981" lon="6.59088">
        <ele>2365</ele>
        <time>2018-12-04T11:45:20Z</time>
      </trkpt>
      <trkpt lat="45.60991" lon="6.59109">
        <ele>2362.5</ele>
        <time>2018-12-04T11:45:40Z</time>
      </trkpt>
      <trkpt lat="45.61007" lon="6.59123">
        <ele>2357.5</ele>
        <time>2018-12-04T11:46:08Z</time>
      </trkpt>
      <trkpt lat="45.61022" lon="6.59138">
        <ele>2349.5</ele>
        <time>2018-12-04T11:46:38Z</time>
      </trkpt>
      <trkpt lat="45.61035" lon="6.59156">
        <ele>2343.2</ele>
        <time>2018-12-04T11:47:12Z</time>
      </trkpt>
      <trkpt lat="45.61053" lon="6.59163">
        <ele>2338.9</ele>
        <time>2018-12-04T11:47:33Z</time>
      </trkpt>
      <trkpt lat="45.61069" lon="6.59178">
        <ele>2335.7</ele>
        <time>2018-12-04T11:47:52Z</time>
      </trkpt>
      <trkpt lat="45.61082" lon="6.59196">
        <ele>2333.2</ele>
        <time>2018-12-04T11:48:12Z</time>
      </trkpt>
      <trkpt lat="45.61096" lon="6.59215">
        <ele>2331.4</ele>
        <time>2018-12-04T11:48:33Z</time>
      </trkpt>
      <trkpt lat="45.61114" lon="6.59215">
        <ele>2326.6</ele>
        <time>2018-12-04T11:49:17Z</time>
      </trkpt>
      <trkpt lat="45.61131" lon="6.59223">
        <ele>2321.6</ele>
        <time>2018-12-04T11:49:58Z</time>
      </trkpt>
      <trkpt lat="45.61139" lon="6.59247">
        <ele>2318.6</ele>
        <time>2018-12-04T11:50:27Z</time>
      </trkpt>
      <trkpt lat="45.61147" lon="6.59271">
        <ele>2315.9</ele>
        <time>2018-12-04T11:50:49Z</time>
      </trkpt>
      <trkpt lat="45.61154" lon="6.59296">
        <ele>2311.8</ele>
        <time>2018-12-04T11:51:14Z</time>
      </trkpt>
      <trkpt lat="45.61158" lon="6.59322">
        <ele>2308.8</ele>
        <time>2018-12-04T11:51:33Z</time>
      </trkpt>
      <trkpt lat="45.61152" lon="6.59347">
        <ele>2305.1</ele>
        <time>2018-12-04T11:51:55Z</time>
      </trkpt>
      <trkpt lat="45.61147" lon="6.59372">
        <ele>2301.6</ele>
        <time>2018-12-04T11:52:15Z</time>
      </trkpt>
      <trkpt lat="45.61153" lon="6.59396">
        <ele>2298.8</ele>
        <time>2018-12-04T11:52:42Z</time>
      </trkpt>
      <trkpt lat="45.61158" lon="6.59421">
        <ele>2294.6</ele>
        <time>2018-12-04T11:53:11Z</time>
      </trkpt>
      <trkpt lat="45.61148" lon="6.59443">
        <ele>2291.8</ele>
        <time>2018-12-04T11:53:33Z</time>
      </trkpt>
      <trkpt lat="45.61162" lon="6.59459">
        <ele>2288.8</ele>
        <time>2018-12-04T11:53:54Z</time>
      </trkpt>
      <trkpt lat="45.61166" lon="6.59484">
        <ele>2287.3</ele>
        <time>2018-12-04T11:54:12Z</time>
      </trkpt>
      <trkpt lat="45.61167" lon="6.59511">
        <ele>2285.3</ele>
        <time>2018-12-04T11:54:31Z</time>
      </trkpt>
      <trkpt lat="45.61168" lon="6.59537">
        <ele>2283.8</ele>
        <time>2018-12-04T11:54:55Z</time>
      </trkpt>
      <trkpt lat="45.61165" lon="6.59563">
        <ele>2281.2</ele>
        <time>2018-12-04T11:55:19Z</time>
      </trkpt>
      <trkpt lat="45.61148" lon="6.59573">
        <ele>2279.4</ele>
        <time>2018-12-04T11:55:54Z</time>
      </trkpt>
      <trkpt lat="45.61144" lon="6.59598">
        <ele>2277.3</ele>
        <time>2018-12-04T11:56:22Z</time>
      </trkpt>
      <trkpt lat="45.61156" lon="6.59618">
        <ele>2274.6</ele>
        <time>2018-12-04T11:56:45Z</time>
      </trkpt>
      <trkpt lat="45.61159" lon="6.59645">
        <ele>2270.6</ele>
        <time>2018-12-04T11:57:10Z</time>
      </trkpt>
      <trkpt lat="45.61149" lon="6.59668">
        <ele>2265.7</ele>
        <time>2018-12-04T11:57:40Z</time>
      </trkpt>
      <trkpt lat="45.61148" lon="6.59694">
        <ele>2262.1</ele>
        <time>2018-12-04T11:58:05Z</time>
      </trkpt>
      <trkpt lat="45.61157" lon="6.59717">
        <ele>2258.3</ele>
        <time>2018-12-04T11:58:28Z</time>
      </trkpt>
      <trkpt lat="45.6116" lon="6.59743">
        <ele>2254</ele>
        <time>2018-12-04T11:58:50Z</time>
      </trkpt>
      <trkpt lat="45.61167" lon="6.59767">
        <ele>2248.1</ele>
        <time>2018-12-04T11:59:16Z</time>
      </trkpt>
      <trkpt lat="45.61174" lon="6.59792">
        <ele>2241.9</ele>
        <time>2018-12-04T11:59:42Z</time>
      </trkpt>
      <trkpt lat="45.61176" lon="6.59818">
        <ele>2237</ele>
        <time>2018-12-04T12:00:04Z</time>
      </trkpt>
      <trkpt lat="45.61183" lon="6.59842">
        <ele>2232.4</ele>
        <time>2018-12-04T12:00:30Z</time>
      </trkpt>
      <trkpt lat="45.61191" lon="6.59865">
        <ele>2228.4</ele>
        <time>2018-12-04T12:00:51Z</time>
      </trkpt>
      <trkpt lat="45.612" lon="6.59888">
        <ele>2225.4</ele>
        <time>2018-12-04T12:01:12Z</time>
      </trkpt>
      <trkpt lat="45.61204" lon="6.59914">
        <ele>2221.8</ele>
        <time>2018-12-04T12:01:33Z</time>
      </trkpt>
      <trkpt lat="45.61208" lon="6.5994">
        <ele>2217.6</ele>
        <time>2018-12-04T12:01:59Z</time>
      </trkpt>
      <trkpt lat="45.6122" lon="6.59959">
        <ele>2213.1</ele>
        <time>2018-12-04T12:02:33Z</time>
      </trkpt>
      <trkpt lat="45.61236" lon="6.59974">
        <ele>2206.9</ele>
        <time>2018-12-04T12:03:01Z</time>
      </trkpt>
      <trkpt lat="45.61252" lon="6.59985">
        <ele>2201.9</ele>
        <time>2018-12-04T12:03:24Z</time>
      </trkpt>
      <trkpt lat="45.6127" lon="6.59989">
        <ele>2194.1</ele>
        <time>2018-12-04T12:04:02Z</time>
      </trkpt>
      <trkpt lat="45.61287" lon="6.60001">
        <ele>2186.5</ele>
        <time>2018-12-04T12:04:39Z</time>
      </trkpt>
      <trkpt lat="45.61298" lon="6.60022">
        <ele>2180.9</ele>
        <time>2018-12-04T12:05:04Z</time>
      </trkpt>
      <trkpt lat="45.61305" lon="6.60046">
        <ele>2176.4</ele>
        <time>2018-12-04T12:05:26Z</time>
      </trkpt>
      <trkpt lat="45.61312" lon="6.6007">
        <ele>2173.2</ele>
        <time>2018-12-04T12:05:44Z</time>
      </trkpt>
      <trkpt lat="45.61321" lon="6.60094">
        <ele>2169.9</ele>
        <time>2018-12-04T12:06:02Z</time>
      </trkpt>
      <trkpt lat="45.61329" lon="6.60118">
        <ele>2166.1</ele>
        <time>2018-12-04T12:06:20Z</time>
      </trkpt>
      <trkpt lat="45.61342" lon="6.60136">
        <ele>2161.5</ele>
        <time>2018-12-04T12:06:42Z</time>
      </trkpt>
      <trkpt lat="45.61356" lon="6.60153">
        <ele>2155.2</ele>
        <time>2018-12-04T12:08:00Z</time>
      </trkpt>
      <trkpt lat="45.61369" lon="6.60173">
        <ele>2153.6</ele>
        <time>2018-12-04T12:09:51Z</time>
      </trkpt>
      <trkpt lat="45.6138" lon="6.60194">
        <ele>2151</ele>
        <time>2018-12-04T12:10:12Z</time>
      </trkpt>
      <trkpt lat="45.61389" lon="6.60216">
        <ele>2147.2</ele>
        <time>2018-12-04T12:10:34Z</time>
      </trkpt>
      <trkpt lat="45.61397" lon="6.60239">
        <ele>2142.1</ele>
        <time>2018-12-04T12:10:56Z</time>
      </trkpt>
      <trkpt lat="45.61407" lon="6.60261">
        <ele>2139.1</ele>
        <time>2018-12-04T12:11:15Z</time>
      </trkpt>
      <trkpt lat="45.61415" lon="6.60287">
        <ele>2135.9</ele>
        <time>2018-12-04T12:11:34Z</time>
      </trkpt>
      <trkpt lat="45.61428" lon="6.60304">
        <ele>2132.2</ele>
        <time>2018-12-04T12:11:53Z</time>
      </trkpt>
      <trkpt lat="45.61436" lon="6.60327">
        <ele>2129.1</ele>
        <time>2018-12-04T12:12:13Z</time>
      </trkpt>
      <trkpt lat="45.61454" lon="6.60328">
        <ele>2125.9</ele>
        <time>2018-12-04T12:12:42Z</time>
      </trkpt>
      <trkpt lat="45.6147" lon="6.60316">
        <ele>2123.4</ele>
        <time>2018-12-04T12:13:01Z</time>
      </trkpt>
      <trkpt lat="45.61487" lon="6.60306">
        <ele>2123</ele>
        <time>2018-12-04T12:13:21Z</time>
      </trkpt>
      <trkpt lat="45.61505" lon="6.603">
        <ele>2122</ele>
        <time>2018-12-04T12:13:38Z</time>
      </trkpt>
      <trkpt lat="45.61522" lon="6.60289">
        <ele>2120.6</ele>
        <time>2018-12-04T12:13:56Z</time>
      </trkpt>
      <trkpt lat="45.61538" lon="6.60275">
        <ele>2119.8</ele>
        <time>2018-12-04T12:14:20Z</time>
      </trkpt>
      <trkpt lat="45.61555" lon="6.60285">
        <ele>2119.1</ele>
        <time>2018-12-04T12:14:41Z</time>
      </trkpt>
      <trkpt lat="45.61561" lon="6.60311">
        <ele>2118.8</ele>
        <time>2018-12-04T12:15:00Z</time>
      </trkpt>
      <trkpt lat="45.61566" lon="6.60336">
        <ele>2119</ele>
        <time>2018-12-04T12:15:19Z</time>
      </trkpt>
      <trkpt lat="45.61577" lon="6.60357">
        <ele>2118.5</ele>
        <time>2018-12-04T12:15:41Z</time>
      </trkpt>
      <trkpt lat="45.61595" lon="6.60359">
        <ele>2117.4</ele>
        <time>2018-12-04T12:15:58Z</time>
      </trkpt>
      <trkpt lat="45.61614" lon="6.60354">
        <ele>2115.8</ele>
        <time>2018-12-04T12:16:17Z</time>
      </trkpt>
      <trkpt lat="45.61631" lon="6.60367">
        <ele>2114.3</ele>
        <time>2018-12-04T12:16:36Z</time>
      </trkpt>
      <trkpt lat="45.61648" lon="6.60353">
        <ele>2112.7</ele>
        <time>2018-12-04T12:16:53Z</time>
      </trkpt>
      <trkpt lat="45.61664" lon="6.60343">
        <ele>2111.5</ele>
        <time>2018-12-04T12:17:09Z</time>
      </trkpt>
      <trkpt lat="45.61681" lon="6.60331">
        <ele>2109.9</ele>
        <time>2018-12-04T12:17:29Z</time>
      </trkpt>
      <trkpt lat="45.61696" lon="6.60315">
        <ele>2108.4</ele>
        <time>2018-12-04T12:17:49Z</time>
      </trkpt>
      <trkpt lat="45.61712" lon="6.60306">
        <ele>2108.3</ele>
        <time>2018-12-04T12:18:07Z</time>
      </trkpt>
      <trkpt lat="45.6173" lon="6.60312">
        <ele>2107.3</ele>
        <time>2018-12-04T12:19:15Z</time>
      </trkpt>
      <trkpt lat="45.61739" lon="6.60335">
        <ele>2107.1</ele>
        <time>2018-12-04T12:19:36Z</time>
      </trkpt>
      <trkpt lat="45.61743" lon="6.60361">
        <ele>2106.3</ele>
        <time>2018-12-04T12:21:09Z</time>
      </trkpt>
      <trkpt lat="45.61748" lon="6.60386">
        <ele>2106.5</ele>
        <time>2018-12-04T12:21:30Z</time>
      </trkpt>
      <trkpt lat="45.61759" lon="6.60407">
        <ele>2106.6</ele>
        <time>2018-12-04T12:21:49Z</time>
      </trkpt>
      <trkpt lat="45.61771" lon="6.60428">
        <ele>2105.7</ele>
        <time>2018-12-04T12:22:08Z</time>
      </trkpt>
      <trkpt lat="45.61774" lon="6.60454">
        <ele>2104.7</ele>
        <time>2018-12-04T12:22:26Z</time>
      </trkpt>
      <trkpt lat="45.61774" lon="6.6048">
        <ele>2104.4</ele>
        <time>2018-12-04T12:22:43Z</time>
      </trkpt>
      <trkpt lat="45.61778" lon="6.60507">
        <ele>2104.3</ele>
        <time>2018-12-04T12:23:04Z</time>
      </trkpt>
      <trkpt lat="45.61792" lon="6.60526">
        <ele>2104.3</ele>
        <time>2018-12-04T12:23:26Z</time>
      </trkpt>
      <trkpt lat="45.61809" lon="6.60535">
        <ele>2102.9</ele>
        <time>2018-12-04T12:23:48Z</time>
      </trkpt>
      <trkpt lat="45.61824" lon="6.60549">
        <ele>2103.6</ele>
        <time>2018-12-04T12:24:09Z</time>
      </trkpt>
      <trkpt lat="45.61834" lon="6.60571">
        <ele>2104.5</ele>
        <time>2018-12-04T12:24:31Z</time>
      </trkpt>
      <trkpt lat="45.61827" lon="6.60547">
        <ele>2101.1</ele>
        <time>2018-12-04T13:02:25Z</time>
      </trkpt>
      <trkpt lat="45.61811" lon="6.60536">
        <ele>2101.3</ele>
        <time>2018-12-04T13:02:49Z</time>
      </trkpt>
      <trkpt lat="45.61793" lon="6.60528">
        <ele>2099.4</ele>
        <time>2018-12-04T13:03:07Z</time>
      </trkpt>
      <trkpt lat="45.61781" lon="6.60509">
        <ele>2097.2</ele>
        <time>2018-12-04T13:03:26Z</time>
      </trkpt>
      <trkpt lat="45.61776" lon="6.60482">
        <ele>2096.1</ele>
        <time>2018-12-04T13:03:43Z</time>
      </trkpt>
      <trkpt lat="45.61776" lon="6.60456">
        <ele>2095.2</ele>
        <time>2018-12-04T13:04:00Z</time>
      </trkpt>
      <trkpt lat="45.61774" lon="6.6043">
        <ele>2096.9</ele>
        <time>2018-12-04T13:04:21Z</time>
      </trkpt>
      <trkpt lat="45.61762" lon="6.60408">
        <ele>2098.5</ele>
        <time>2018-12-04T13:04:41Z</time>
      </trkpt>
      <trkpt lat="45.61751" lon="6.60388">
        <ele>2099.2</ele>
        <time>2018-12-04T13:05:01Z</time>
      </trkpt>
      <trkpt lat="45.61745" lon="6.60363">
        <ele>2098.3</ele>
        <time>2018-12-04T13:05:24Z</time>
      </trkpt>
      <trkpt lat="45.61742" lon="6.60337">
        <ele>2099.4</ele>
        <time>2018-12-04T13:05:44Z</time>
      </trkpt>
      <trkpt lat="45.61732" lon="6.60315">
        <ele>2099.4</ele>
        <time>2018-12-04T13:06:02Z</time>
      </trkpt>
      <trkpt lat="45.61719" lon="6.60297">
        <ele>2098.8</ele>
        <time>2018-12-04T13:06:20Z</time>
      </trkpt>
      <trkpt lat="45.61712" lon="6.60272">
        <ele>2098</ele>
        <time>2018-12-04T13:06:42Z</time>
      </trkpt>
      <trkpt lat="45.61725" lon="6.60253">
        <ele>2095.3</ele>
        <time>2018-12-04T13:07:04Z</time>
      </trkpt>
      <trkpt lat="45.61738" lon="6.60234">
        <ele>2093.9</ele>
        <time>2018-12-04T13:07:19Z</time>
      </trkpt>
      <trkpt lat="45.61751" lon="6.60215">
        <ele>2092.6</ele>
        <time>2018-12-04T13:07:39Z</time>
      </trkpt>
      <trkpt lat="45.61765" lon="6.60197">
        <ele>2092.4</ele>
        <time>2018-12-04T13:07:55Z</time>
      </trkpt>
      <trkpt lat="45.61777" lon="6.60176">
        <ele>2091.4</ele>
        <time>2018-12-04T13:08:10Z</time>
      </trkpt>
      <trkpt lat="45.6179" lon="6.6016">
        <ele>2089.8</ele>
        <time>2018-12-04T13:08:25Z</time>
      </trkpt>
      <trkpt lat="45.61799" lon="6.60136">
        <ele>2087.1</ele>
        <time>2018-12-04T13:08:41Z</time>
      </trkpt>
      <trkpt lat="45.61806" lon="6.60113">
        <ele>2085.3</ele>
        <time>2018-12-04T13:08:56Z</time>
      </trkpt>
      <trkpt lat="45.61818" lon="6.60092">
        <ele>2082.6</ele>
        <time>2018-12-04T13:09:16Z</time>
      </trkpt>
      <trkpt lat="45.61831" lon="6.60074">
        <ele>2081.8</ele>
        <time>2018-12-04T13:09:30Z</time>
      </trkpt>
      <trkpt lat="45.61843" lon="6.60054">
        <ele>2081.5</ele>
        <time>2018-12-04T13:09:44Z</time>
      </trkpt>
      <trkpt lat="45.61855" lon="6.60034">
        <ele>2080.9</ele>
        <time>2018-12-04T13:09:59Z</time>
      </trkpt>
      <trkpt lat="45.61869" lon="6.60018">
        <ele>2080.3</ele>
        <time>2018-12-04T13:10:15Z</time>
      </trkpt>
      <trkpt lat="45.61886" lon="6.60005">
        <ele>2079.6</ele>
        <time>2018-12-04T13:10:28Z</time>
      </trkpt>
      <trkpt lat="45.61904" lon="6.6">
        <ele>2076.2</ele>
        <time>2018-12-04T13:10:44Z</time>
      </trkpt>
      <trkpt lat="45.61921" lon="6.59987">
        <ele>2072</ele>
        <time>2018-12-04T13:11:00Z</time>
      </trkpt>
      <trkpt lat="45.61938" lon="6.59977">
        <ele>2068.5</ele>
        <time>2018-12-04T13:11:15Z</time>
      </trkpt>
      <trkpt lat="45.61954" lon="6.59965">
        <ele>2065.2</ele>
        <time>2018-12-04T13:11:31Z</time>
      </trkpt>
      <trkpt lat="45.61972" lon="6.59975">
        <ele>2062.4</ele>
        <time>2018-12-04T13:11:47Z</time>
      </trkpt>
      <trkpt lat="45.61974" lon="6.6">
        <ele>2061.8</ele>
        <time>2018-12-04T13:12:43Z</time>
      </trkpt>
      <trkpt lat="45.61966" lon="6.60024">
        <ele>2059.2</ele>
        <time>2018-12-04T13:13:20Z</time>
      </trkpt>
      <trkpt lat="45.6196" lon="6.60049">
        <ele>2057.9</ele>
        <time>2018-12-04T13:13:32Z</time>
      </trkpt>
      <trkpt lat="45.61965" lon="6.60076">
        <ele>2056.8</ele>
        <time>2018-12-04T13:13:51Z</time>
      </trkpt>
      <trkpt lat="45.61975" lon="6.60099">
        <ele>2055.1</ele>
        <time>2018-12-04T13:14:09Z</time>
      </trkpt>
      <trkpt lat="45.61993" lon="6.60108">
        <ele>2052</ele>
        <time>2018-12-04T13:14:27Z</time>
      </trkpt>
      <trkpt lat="45.62011" lon="6.60117">
        <ele>2050.1</ele>
        <time>2018-12-04T13:14:43Z</time>
      </trkpt>
      <trkpt lat="45.62027" lon="6.60129">
        <ele>2047.5</ele>
        <time>2018-12-04T13:15:00Z</time>
      </trkpt>
      <trkpt lat="45.62041" lon="6.60145">
        <ele>2043.7</ele>
        <time>2018-12-04T13:15:18Z</time>
      </trkpt>
      <trkpt lat="45.62056" lon="6.6016">
        <ele>2040.4</ele>
        <time>2018-12-04T13:15:37Z</time>
      </trkpt>
      <trkpt lat="45.62066" lon="6.60182">
        <ele>2037.3</ele>
        <time>2018-12-04T13:15:55Z</time>
      </trkpt>
      <trkpt lat="45.62078" lon="6.60202">
        <ele>2034.3</ele>
        <time>2018-12-04T13:16:15Z</time>
      </trkpt>
      <trkpt lat="45.62091" lon="6.6022">
        <ele>2031.8</ele>
        <time>2018-12-04T13:16:32Z</time>
      </trkpt>
      <trkpt lat="45.62104" lon="6.60237">
        <ele>2027.2</ele>
        <time>2018-12-04T13:16:51Z</time>
      </trkpt>
      <trkpt lat="45.62123" lon="6.60241">
        <ele>2024.4</ele>
        <time>2018-12-04T13:17:06Z</time>
      </trkpt>
      <trkpt lat="45.6214" lon="6.60249">
        <ele>2022.2</ele>
        <time>2018-12-04T13:17:18Z</time>
      </trkpt>
      <trkpt lat="45.62159" lon="6.60252">
        <ele>2020.1</ele>
        <time>2018-12-04T13:17:32Z</time>
      </trkpt>
      <trkpt lat="45.62177" lon="6.60248">
        <ele>2019.5</ele>
        <time>2018-12-04T13:17:45Z</time>
      </trkpt>
      <trkpt lat="45.62193" lon="6.60235">
        <ele>2020.2</ele>
        <time>2018-12-04T13:17:58Z</time>
      </trkpt>
      <trkpt lat="45.62209" lon="6.60223">
        <ele>2021.4</ele>
        <time>2018-12-04T13:18:19Z</time>
      </trkpt>
      <trkpt lat="45.62224" lon="6.60208">
        <ele>2022.1</ele>
        <time>2018-12-04T13:18:33Z</time>
      </trkpt>
      <trkpt lat="45.6224" lon="6.60192">
        <ele>2022.4</ele>
        <time>2018-12-04T13:18:49Z</time>
      </trkpt>
      <trkpt lat="45.62256" lon="6.60179">
        <ele>2023.3</ele>
        <time>2018-12-04T13:19:04Z</time>
      </trkpt>
      <trkpt lat="45.62274" lon="6.6018">
        <ele>2024.3</ele>
        <time>2018-12-04T13:19:20Z</time>
      </trkpt>
      <trkpt lat="45.62287" lon="6.60199">
        <ele>2023.2</ele>
        <time>2018-12-04T13:19:39Z</time>
      </trkpt>
      <trkpt lat="45.6229" lon="6.60226">
        <ele>2019.5</ele>
        <time>2018-12-04T13:19:57Z</time>
      </trkpt>
      <trkpt lat="45.62292" lon="6.60254">
        <ele>2015.5</ele>
        <time>2018-12-04T13:20:12Z</time>
      </trkpt>
      <trkpt lat="45.62298" lon="6.60279">
        <ele>2011.8</ele>
        <time>2018-12-04T13:20:27Z</time>
      </trkpt>
      <trkpt lat="45.62303" lon="6.60304">
        <ele>2007.8</ele>
        <time>2018-12-04T13:20:46Z</time>
      </trkpt>
      <trkpt lat="45.62311" lon="6.60327">
        <ele>2001.6</ele>
        <time>2018-12-04T13:21:05Z</time>
      </trkpt>
      <trkpt lat="45.62321" lon="6.6035">
        <ele>1994.1</ele>
        <time>2018-12-04T13:21:23Z</time>
      </trkpt>
      <trkpt lat="45.6233" lon="6.60373">
        <ele>1985.7</ele>
        <time>2018-12-04T13:21:39Z</time>
      </trkpt>
      <trkpt lat="45.6234" lon="6.60394">
        <ele>1976</ele>
        <time>2018-12-04T13:21:56Z</time>
      </trkpt>
      <trkpt lat="45.62349" lon="6.60417">
        <ele>1968</ele>
        <time>2018-12-04T13:22:10Z</time>
      </trkpt>
      <trkpt lat="45.62357" lon="6.6044">
        <ele>1961.3</ele>
        <time>2018-12-04T13:22:25Z</time>
      </trkpt>
      <trkpt lat="45.62364" lon="6.60464">
        <ele>1957.7</ele>
        <time>2018-12-04T13:22:37Z</time>
      </trkpt>
      <trkpt lat="45.62377" lon="6.60483">
        <ele>1953.7</ele>
        <time>2018-12-04T13:22:54Z</time>
      </trkpt>
      <trkpt lat="45.62395" lon="6.60492">
        <ele>1953.1</ele>
        <time>2018-12-04T13:23:02Z</time>
      </trkpt>
      <trkpt lat="45.62413" lon="6.60499">
        <ele>1954.6</ele>
        <time>2018-12-04T13:23:13Z</time>
      </trkpt>
      <trkpt lat="45.62432" lon="6.60503">
        <ele>1956.9</ele>
        <time>2018-12-04T13:23:24Z</time>
      </trkpt>
      <trkpt lat="45.62451" lon="6.60502">
        <ele>1960</ele>
        <time>2018-12-04T13:23:37Z</time>
      </trkpt>
      <trkpt lat="45.6247" lon="6.60498">
        <ele>1963.2</ele>
        <time>2018-12-04T13:23:53Z</time>
      </trkpt>
      <trkpt lat="45.62489" lon="6.605">
        <ele>1965.8</ele>
        <time>2018-12-04T13:24:10Z</time>
      </trkpt>
      <trkpt lat="45.62508" lon="6.60502">
        <ele>1967.4</ele>
        <time>2018-12-04T13:24:23Z</time>
      </trkpt>
      <trkpt lat="45.62526" lon="6.60497">
        <ele>1969.4</ele>
        <time>2018-12-04T13:24:39Z</time>
      </trkpt>
      <trkpt lat="45.62543" lon="6.60489">
        <ele>1971.6</ele>
        <time>2018-12-04T13:24:55Z</time>
      </trkpt>
      <trkpt lat="45.62561" lon="6.60481">
        <ele>1972</ele>
        <time>2018-12-04T13:25:09Z</time>
      </trkpt>
      <trkpt lat="45.62579" lon="6.60484">
        <ele>1970.8</ele>
        <time>2018-12-04T13:25:28Z</time>
      </trkpt>
      <trkpt lat="45.62597" lon="6.6048">
        <ele>1968.6</ele>
        <time>2018-12-04T13:25:43Z</time>
      </trkpt>
      <trkpt lat="45.62616" lon="6.60474">
        <ele>1966.6</ele>
        <time>2018-12-04T13:25:56Z</time>
      </trkpt>
      <trkpt lat="45.62633" lon="6.60464">
        <ele>1964.4</ele>
        <time>2018-12-04T13:26:11Z</time>
      </trkpt>
      <trkpt lat="45.62648" lon="6.60446">
        <ele>1962.2</ele>
        <time>2018-12-04T13:26:30Z</time>
      </trkpt>
      <trkpt lat="45.62664" lon="6.60434">
        <ele>1960.3</ele>
        <time>2018-12-04T13:26:45Z</time>
      </trkpt>
      <trkpt lat="45.6268" lon="6.60418">
        <ele>1958.4</ele>
        <time>2018-12-04T13:26:59Z</time>
      </trkpt>
      <trkpt lat="45.62696" lon="6.60405">
        <ele>1956.7</ele>
        <time>2018-12-04T13:27:13Z</time>
      </trkpt>
      <trkpt lat="45.62712" lon="6.60392">
        <ele>1955.3</ele>
        <time>2018-12-04T13:27:26Z</time>
      </trkpt>
      <trkpt lat="45.627" lon="6.60373">
        <ele>1954.1</ele>
        <time>2018-12-04T13:27:44Z</time>
      </trkpt>
      <trkpt lat="45.62682" lon="6.60371">
        <ele>1953</ele>
        <time>2018-12-04T13:28:08Z</time>
      </trkpt>
      <trkpt lat="45.62664" lon="6.60373">
        <ele>1952</ele>
        <time>2018-12-04T13:28:25Z</time>
      </trkpt>
      <trkpt lat="45.62646" lon="6.60376">
        <ele>1949.6</ele>
        <time>2018-12-04T13:28:38Z</time>
      </trkpt>
      <trkpt lat="45.6263" lon="6.60361">
        <ele>1946.8</ele>
        <time>2018-12-04T13:28:53Z</time>
      </trkpt>
      <trkpt lat="45.6262" lon="6.6034">
        <ele>1945.2</ele>
        <time>2018-12-04T13:29:07Z</time>
      </trkpt>
      <trkpt lat="45.62606" lon="6.60321">
        <ele>1944.3</ele>
        <time>2018-12-04T13:29:22Z</time>
      </trkpt>
      <trkpt lat="45.62593" lon="6.60304">
        <ele>1943</ele>
        <time>2018-12-04T13:29:38Z</time>
      </trkpt>
      <trkpt lat="45.62577" lon="6.6029">
        <ele>1941.4</ele>
        <time>2018-12-04T13:29:53Z</time>
      </trkpt>
      <trkpt lat="45.62563" lon="6.60273">
        <ele>1939.5</ele>
        <time>2018-12-04T13:30:07Z</time>
      </trkpt>
      <trkpt lat="45.6255" lon="6.60255">
        <ele>1937.2</ele>
        <time>2018-12-04T13:30:20Z</time>
      </trkpt>
      <trkpt lat="45.62535" lon="6.60238">
        <ele>1933.8</ele>
        <time>2018-12-04T13:30:38Z</time>
      </trkpt>
      <trkpt lat="45.62525" lon="6.60216">
        <ele>1930.3</ele>
        <time>2018-12-04T13:30:54Z</time>
      </trkpt>
      <trkpt lat="45.62544" lon="6.60216">
        <ele>1927.2</ele>
        <time>2018-12-04T13:31:14Z</time>
      </trkpt>
      <trkpt lat="45.6256" lon="6.6023">
        <ele>1925.9</ele>
        <time>2018-12-04T13:31:30Z</time>
      </trkpt>
      <trkpt lat="45.62572" lon="6.6025">
        <ele>1924.6</ele>
        <time>2018-12-04T13:31:47Z</time>
      </trkpt>
      <trkpt lat="45.6259" lon="6.60257">
        <ele>1923.2</ele>
        <time>2018-12-04T13:32:01Z</time>
      </trkpt>
      <trkpt lat="45.62591" lon="6.6023">
        <ele>1919.6</ele>
        <time>2018-12-04T13:32:22Z</time>
      </trkpt>
      <trkpt lat="45.62584" lon="6.60205">
        <ele>1917.2</ele>
        <time>2018-12-04T13:32:35Z</time>
      </trkpt>
      <trkpt lat="45.62578" lon="6.6018">
        <ele>1915.4</ele>
        <time>2018-12-04T13:32:49Z</time>
      </trkpt>
      <trkpt lat="45.62571" lon="6.60155">
        <ele>1913.9</ele>
        <time>2018-12-04T13:33:04Z</time>
      </trkpt>
      <trkpt lat="45.62575" lon="6.60129">
        <ele>1911.9</ele>
        <time>2018-12-04T13:33:19Z</time>
      </trkpt>
      <trkpt lat="45.62587" lon="6.60108">
        <ele>1909.6</ele>
        <time>2018-12-04T13:33:35Z</time>
      </trkpt>
      <trkpt lat="45.62598" lon="6.60087">
        <ele>1906.6</ele>
        <time>2018-12-04T13:33:53Z</time>
      </trkpt>
      <trkpt lat="45.62607" lon="6.60064">
        <ele>1903.6</ele>
        <time>2018-12-04T13:34:08Z</time>
      </trkpt>
      <trkpt lat="45.62622" lon="6.6005">
        <ele>1900.8</ele>
        <time>2018-12-04T13:34:25Z</time>
      </trkpt>
      <trkpt lat="45.62639" lon="6.60042">
        <ele>1898.9</ele>
        <time>2018-12-04T13:34:42Z</time>
      </trkpt>
      <trkpt lat="45.62657" lon="6.60035">
        <ele>1897.8</ele>
        <time>2018-12-04T13:34:57Z</time>
      </trkpt>
      <trkpt lat="45.62676" lon="6.60032">
        <ele>1897</ele>
        <time>2018-12-04T13:35:16Z</time>
      </trkpt>
      <trkpt lat="45.62695" lon="6.60035">
        <ele>1896.5</ele>
        <time>2018-12-04T13:43:11Z</time>
      </trkpt>
      <trkpt lat="45.6271" lon="6.60049">
        <ele>1897.2</ele>
        <time>2018-12-04T13:43:52Z</time>
      </trkpt>
      <trkpt lat="45.62726" lon="6.60064">
        <ele>1895</ele>
        <time>2018-12-04T13:44:12Z</time>
      </trkpt>
      <trkpt lat="45.62745" lon="6.60061">
        <ele>1893</ele>
        <time>2018-12-04T13:44:29Z</time>
      </trkpt>
      <trkpt lat="45.62764" lon="6.60064">
        <ele>1890.7</ele>
        <time>2018-12-04T13:44:50Z</time>
      </trkpt>
      <trkpt lat="45.62782" lon="6.60068">
        <ele>1888.2</ele>
        <time>2018-12-04T13:45:20Z</time>
      </trkpt>
      <trkpt lat="45.62801" lon="6.60069">
        <ele>1887.6</ele>
        <time>2018-12-04T13:45:35Z</time>
      </trkpt>
      <trkpt lat="45.62819" lon="6.60073">
        <ele>1885.9</ele>
        <time>2018-12-04T13:45:53Z</time>
      </trkpt>
      <trkpt lat="45.62838" lon="6.60071">
        <ele>1883.9</ele>
        <time>2018-12-04T13:46:12Z</time>
      </trkpt>
      <trkpt lat="45.62857" lon="6.60069">
        <ele>1882.7</ele>
        <time>2018-12-04T13:46:29Z</time>
      </trkpt>
      <trkpt lat="45.62872" lon="6.60055">
        <ele>1881.7</ele>
        <time>2018-12-04T13:46:43Z</time>
      </trkpt>
      <trkpt lat="45.62882" lon="6.60032">
        <ele>1881</ele>
        <time>2018-12-04T13:46:58Z</time>
      </trkpt>
      <trkpt lat="45.62897" lon="6.60019">
        <ele>1880.2</ele>
        <time>2018-12-04T13:47:16Z</time>
      </trkpt>
      <trkpt lat="45.62912" lon="6.60003">
        <ele>1879.7</ele>
        <time>2018-12-04T13:47:32Z</time>
      </trkpt>
      <trkpt lat="45.6293" lon="6.59994">
        <ele>1878.9</ele>
        <time>2018-12-04T13:47:50Z</time>
      </trkpt>
      <trkpt lat="45.62947" lon="6.59982">
        <ele>1878</ele>
        <time>2018-12-04T13:48:05Z</time>
      </trkpt>
      <trkpt lat="45.62963" lon="6.5997">
        <ele>1877.6</ele>
        <time>2018-12-04T13:48:23Z</time>
      </trkpt>
      <trkpt lat="45.62978" lon="6.59955">
        <ele>1876.8</ele>
        <time>2018-12-04T13:48:37Z</time>
      </trkpt>
      <trkpt lat="45.62995" lon="6.59943">
        <ele>1875.8</ele>
        <time>2018-12-04T13:48:54Z</time>
      </trkpt>
      <trkpt lat="45.63012" lon="6.59934">
        <ele>1874.8</ele>
        <time>2018-12-04T13:49:11Z</time>
      </trkpt>
      <trkpt lat="45.63001" lon="6.59913">
        <ele>1872.5</ele>
        <time>2018-12-04T13:49:33Z</time>
      </trkpt>
      <trkpt lat="45.62983" lon="6.59919">
        <ele>1871.7</ele>
        <time>2018-12-04T13:49:49Z</time>
      </trkpt>
      <trkpt lat="45.62964" lon="6.59922">
        <ele>1872.2</ele>
        <time>2018-12-04T13:50:07Z</time>
      </trkpt>
      <trkpt lat="45.62945" lon="6.59923">
        <ele>1872.9</ele>
        <time>2018-12-04T13:50:24Z</time>
      </trkpt>
      <trkpt lat="45.62926" lon="6.59922">
        <ele>1873</ele>
        <time>2018-12-04T13:50:39Z</time>
      </trkpt>
      <trkpt lat="45.62908" lon="6.59918">
        <ele>1871.9</ele>
        <time>2018-12-04T13:50:55Z</time>
      </trkpt>
      <trkpt lat="45.62926" lon="6.59913">
        <ele>1869</ele>
        <time>2018-12-04T13:51:13Z</time>
      </trkpt>
      <trkpt lat="45.62943" lon="6.59901">
        <ele>1866</ele>
        <time>2018-12-04T13:51:29Z</time>
      </trkpt>
      <trkpt lat="45.62957" lon="6.59885">
        <ele>1862.6</ele>
        <time>2018-12-04T13:51:46Z</time>
      </trkpt>
      <trkpt lat="45.62975" lon="6.59876">
        <ele>1859.1</ele>
        <time>2018-12-04T13:52:04Z</time>
      </trkpt>
      <trkpt lat="45.62992" lon="6.59869">
        <ele>1856.3</ele>
        <time>2018-12-04T13:52:21Z</time>
      </trkpt>
      <trkpt lat="45.63009" lon="6.59859">
        <ele>1855</ele>
        <time>2018-12-04T13:52:34Z</time>
      </trkpt>
      <trkpt lat="45.63026" lon="6.59848">
        <ele>1852</ele>
        <time>2018-12-04T13:52:51Z</time>
      </trkpt>
      <trkpt lat="45.6304" lon="6.59831">
        <ele>1848.6</ele>
        <time>2018-12-04T13:53:07Z</time>
      </trkpt>
      <trkpt lat="45.63056" lon="6.59818">
        <ele>1845.6</ele>
        <time>2018-12-04T13:53:23Z</time>
      </trkpt>
      <trkpt lat="45.63072" lon="6.59803">
        <ele>1843</ele>
        <time>2018-12-04T13:53:40Z</time>
      </trkpt>
      <trkpt lat="45.63084" lon="6.59783">
        <ele>1839.9</ele>
        <time>2018-12-04T13:53:57Z</time>
      </trkpt>
      <trkpt lat="45.63099" lon="6.59766">
        <ele>1837.1</ele>
        <time>2018-12-04T13:54:13Z</time>
      </trkpt>
      <trkpt lat="45.63114" lon="6.59751">
        <ele>1834.5</ele>
        <time>2018-12-04T13:54:29Z</time>
      </trkpt>
      <trkpt lat="45.63127" lon="6.59734">
        <ele>1832.6</ele>
        <time>2018-12-04T13:54:44Z</time>
      </trkpt>
      <trkpt lat="45.63143" lon="6.59719">
        <ele>1830.4</ele>
        <time>2018-12-04T13:55:00Z</time>
      </trkpt>
      <trkpt lat="45.63159" lon="6.59707">
        <ele>1828.5</ele>
        <time>2018-12-04T13:55:17Z</time>
      </trkpt>
      <trkpt lat="45.63178" lon="6.59699">
        <ele>1826.4</ele>
        <time>2018-12-04T13:55:34Z</time>
      </trkpt>
      <trkpt lat="45.63194" lon="6.59686">
        <ele>1823.6</ele>
        <time>2018-12-04T13:55:52Z</time>
      </trkpt>
      <trkpt lat="45.63195" lon="6.5966">
        <ele>1822.1</ele>
        <time>2018-12-04T13:56:07Z</time>
      </trkpt>
      <trkpt lat="45.63203" lon="6.59635">
        <ele>1822.1</ele>
        <time>2018-12-04T13:56:22Z</time>
      </trkpt>
      <trkpt lat="45.6322" lon="6.59624">
        <ele>1822</ele>
        <time>2018-12-04T13:56:33Z</time>
      </trkpt>
      <trkpt lat="45.63232" lon="6.59604">
        <ele>1821.2</ele>
        <time>2018-12-04T13:56:53Z</time>
      </trkpt>
      <trkpt lat="45.6323" lon="6.59578">
        <ele>1816</ele>
        <time>2018-12-04T14:02:36Z</time>
      </trkpt>
      <trkpt lat="45.63243" lon="6.59559">
        <ele>1815.2</ele>
        <time>2018-12-04T14:02:51Z</time>
      </trkpt>
      <trkpt lat="45.63257" lon="6.59542">
        <ele>1814.5</ele>
        <time>2018-12-04T14:03:04Z</time>
      </trkpt>
      <trkpt lat="45.6327" lon="6.59525">
        <ele>1814.9</ele>
        <time>2018-12-04T14:03:27Z</time>
      </trkpt>
      <trkpt lat="45.63282" lon="6.59505">
        <ele>1814.7</ele>
        <time>2018-12-04T14:03:43Z</time>
      </trkpt>
      <trkpt lat="45.6329" lon="6.59481">
        <ele>1813.5</ele>
        <time>2018-12-04T14:03:58Z</time>
      </trkpt>
      <trkpt lat="45.63298" lon="6.59457">
        <ele>1811.7</ele>
        <time>2018-12-04T14:04:14Z</time>
      </trkpt>
      <trkpt lat="45.6328" lon="6.59453">
        <ele>1808.7</ele>
        <time>2018-12-04T14:05:00Z</time>
      </trkpt>
      <trkpt lat="45.63262" lon="6.59443">
        <ele>1805</ele>
        <time>2018-12-04T14:05:28Z</time>
      </trkpt>
      <trkpt lat="45.63275" lon="6.59423">
        <ele>1803.4</ele>
        <time>2018-12-04T14:05:43Z</time>
      </trkpt>
      <trkpt lat="45.63286" lon="6.59401">
        <ele>1801.4</ele>
        <time>2018-12-04T14:06:04Z</time>
      </trkpt>
      <trkpt lat="45.633" lon="6.59381">
        <ele>1800.1</ele>
        <time>2018-12-04T14:06:18Z</time>
      </trkpt>
      <trkpt lat="45.63311" lon="6.5936">
        <ele>1798.2</ele>
        <time>2018-12-04T14:06:34Z</time>
      </trkpt>
      <trkpt lat="45.6332" lon="6.59337">
        <ele>1795.8</ele>
        <time>2018-12-04T14:06:52Z</time>
      </trkpt>
      <trkpt lat="45.63336" lon="6.59322">
        <ele>1793.8</ele>
        <time>2018-12-04T14:07:07Z</time>
      </trkpt>
      <trkpt lat="45.63352" lon="6.5931">
        <ele>1791.8</ele>
        <time>2018-12-04T14:07:23Z</time>
      </trkpt>
      <trkpt lat="45.63371" lon="6.59306">
        <ele>1790.1</ele>
        <time>2018-12-04T14:07:37Z</time>
      </trkpt>
      <trkpt lat="45.6339" lon="6.59305">
        <ele>1787.4</ele>
        <time>2018-12-04T14:07:55Z</time>
      </trkpt>
      <trkpt lat="45.63409" lon="6.59304">
        <ele>1785.2</ele>
        <time>2018-12-04T14:08:12Z</time>
      </trkpt>
      <trkpt lat="45.63427" lon="6.59298">
        <ele>1783</ele>
        <time>2018-12-04T14:08:28Z</time>
      </trkpt>
      <trkpt lat="45.63444" lon="6.59289">
        <ele>1780.8</ele>
        <time>2018-12-04T14:08:47Z</time>
      </trkpt>
      <trkpt lat="45.63462" lon="6.59289">
        <ele>1779.7</ele>
        <time>2018-12-04T14:09:01Z</time>
      </trkpt>
      <trkpt lat="45.63479" lon="6.59278">
        <ele>1778.5</ele>
        <time>2018-12-04T14:09:19Z</time>
      </trkpt>
      <trkpt lat="45.63485" lon="6.59254">
        <ele>1776.5</ele>
        <time>2018-12-04T14:09:52Z</time>
      </trkpt>
      <trkpt lat="45.63489" lon="6.59228">
        <ele>1775</ele>
        <time>2018-12-04T14:10:23Z</time>
      </trkpt>
      <trkpt lat="45.63471" lon="6.59228">
        <ele>1768</ele>
        <time>2018-12-04T14:11:11Z</time>
      </trkpt>
      <trkpt lat="45.63453" lon="6.59219">
        <ele>1762.3</ele>
        <time>2018-12-04T14:11:40Z</time>
      </trkpt>
      <trkpt lat="45.63435" lon="6.59215">
        <ele>1758.5</ele>
        <time>2018-12-04T14:11:58Z</time>
      </trkpt>
      <trkpt lat="45.63416" lon="6.59211">
        <ele>1755.7</ele>
        <time>2018-12-04T14:12:11Z</time>
      </trkpt>
      <trkpt lat="45.63398" lon="6.59212">
        <ele>1753.1</ele>
        <time>2018-12-04T14:12:25Z</time>
      </trkpt>
      <trkpt lat="45.63379" lon="6.59214">
        <ele>1750.7</ele>
        <time>2018-12-04T14:12:40Z</time>
      </trkpt>
      <trkpt lat="45.63361" lon="6.59218">
        <ele>1747.9</ele>
        <time>2018-12-04T14:12:54Z</time>
      </trkpt>
      <trkpt lat="45.63342" lon="6.59224">
        <ele>1744.8</ele>
        <time>2018-12-04T14:13:11Z</time>
      </trkpt>
      <trkpt lat="45.63324" lon="6.59226">
        <ele>1742.8</ele>
        <time>2018-12-04T14:13:26Z</time>
      </trkpt>
      <trkpt lat="45.63306" lon="6.59218">
        <ele>1741.2</ele>
        <time>2018-12-04T14:13:40Z</time>
      </trkpt>
      <trkpt lat="45.63294" lon="6.59198">
        <ele>1739.8</ele>
        <time>2018-12-04T14:13:54Z</time>
      </trkpt>
      <trkpt lat="45.63306" lon="6.59177">
        <ele>1737.1</ele>
        <time>2018-12-04T14:14:12Z</time>
      </trkpt>
      <trkpt lat="45.63323" lon="6.59165">
        <ele>1735.3</ele>
        <time>2018-12-04T14:14:28Z</time>
      </trkpt>
      <trkpt lat="45.6334" lon="6.59159">
        <ele>1734.6</ele>
        <time>2018-12-04T14:14:45Z</time>
      </trkpt>
      <trkpt lat="45.63355" lon="6.59143">
        <ele>1734.5</ele>
        <time>2018-12-04T14:15:00Z</time>
      </trkpt>
      <trkpt lat="45.63371" lon="6.59131">
        <ele>1734.4</ele>
        <time>2018-12-04T14:15:16Z</time>
      </trkpt>
      <trkpt lat="45.63388" lon="6.5912">
        <ele>1732.8</ele>
        <time>2018-12-04T14:15:30Z</time>
      </trkpt>
      <trkpt lat="45.63406" lon="6.59113">
        <ele>1730.3</ele>
        <time>2018-12-04T14:15:46Z</time>
      </trkpt>
      <trkpt lat="45.63424" lon="6.59103">
        <ele>1727.7</ele>
        <time>2018-12-04T14:16:00Z</time>
      </trkpt>
      <trkpt lat="45.63442" lon="6.59096">
        <ele>1725.5</ele>
        <time>2018-12-04T14:16:13Z</time>
      </trkpt>
      <trkpt lat="45.6346" lon="6.59085">
        <ele>1723.4</ele>
        <time>2018-12-04T14:16:30Z</time>
      </trkpt>
      <trkpt lat="45.63477" lon="6.59073">
        <ele>1722.3</ele>
        <time>2018-12-04T14:16:47Z</time>
      </trkpt>
      <trkpt lat="45.63494" lon="6.59063">
        <ele>1721.3</ele>
        <time>2018-12-04T14:16:59Z</time>
      </trkpt>
      <trkpt lat="45.6351" lon="6.5905">
        <ele>1720.2</ele>
        <time>2018-12-04T14:17:10Z</time>
      </trkpt>
      <trkpt lat="45.63527" lon="6.59036">
        <ele>1718.4</ele>
        <time>2018-12-04T14:17:25Z</time>
      </trkpt>
      <trkpt lat="45.63543" lon="6.59024">
        <ele>1717</ele>
        <time>2018-12-04T14:17:38Z</time>
      </trkpt>
      <trkpt lat="45.6356" lon="6.59011">
        <ele>1715.6</ele>
        <time>2018-12-04T14:17:51Z</time>
      </trkpt>
      <trkpt lat="45.63576" lon="6.58997">
        <ele>1713.6</ele>
        <time>2018-12-04T14:18:04Z</time>
      </trkpt>
      <trkpt lat="45.6359" lon="6.5898">
        <ele>1711.9</ele>
        <time>2018-12-04T14:18:15Z</time>
      </trkpt>
      <trkpt lat="45.63601" lon="6.58959">
        <ele>1709.3</ele>
        <time>2018-12-04T14:18:29Z</time>
      </trkpt>
      <trkpt lat="45.63615" lon="6.58942">
        <ele>1706.2</ele>
        <time>2018-12-04T14:18:44Z</time>
      </trkpt>
      <trkpt lat="45.63633" lon="6.58936">
        <ele>1704</ele>
        <time>2018-12-04T14:18:55Z</time>
      </trkpt>
      <trkpt lat="45.63651" lon="6.58929">
        <ele>1700.8</ele>
        <time>2018-12-04T14:19:08Z</time>
      </trkpt>
      <trkpt lat="45.63668" lon="6.58917">
        <ele>1697.6</ele>
        <time>2018-12-04T14:19:22Z</time>
      </trkpt>
      <trkpt lat="45.63688" lon="6.58915">
        <ele>1694.8</ele>
        <time>2018-12-04T14:19:37Z</time>
      </trkpt>
      <trkpt lat="45.63693" lon="6.58891">
        <ele>1689.7</ele>
        <time>2018-12-04T14:20:29Z</time>
      </trkpt>
      <trkpt lat="45.63708" lon="6.58874">
        <ele>1683.9</ele>
        <time>2018-12-04T14:21:24Z</time>
      </trkpt>
      <trkpt lat="45.63709" lon="6.58847">
        <ele>1679.2</ele>
        <time>2018-12-04T14:22:02Z</time>
      </trkpt>
      <trkpt lat="45.63716" lon="6.58823">
        <ele>1672.7</ele>
        <time>2018-12-04T14:22:36Z</time>
      </trkpt>
      <trkpt lat="45.63735" lon="6.58825">
        <ele>1665</ele>
        <time>2018-12-04T14:23:11Z</time>
      </trkpt>
      <trkpt lat="45.63739" lon="6.588">
        <ele>1659.9</ele>
        <time>2018-12-04T14:23:57Z</time>
      </trkpt>
      <trkpt lat="45.63757" lon="6.58805">
        <ele>1658.7</ele>
        <time>2018-12-04T14:24:13Z</time>
      </trkpt>
      <trkpt lat="45.63775" lon="6.58805">
        <ele>1656.2</ele>
        <time>2018-12-04T14:24:33Z</time>
      </trkpt>
      <trkpt lat="45.63789" lon="6.58789">
        <ele>1650.4</ele>
        <time>2018-12-04T14:26:04Z</time>
      </trkpt>
      <trkpt lat="45.63803" lon="6.58771">
        <ele>1648.3</ele>
        <time>2018-12-04T14:26:21Z</time>
      </trkpt>
      <trkpt lat="45.63821" lon="6.58761">
        <ele>1646.2</ele>
        <time>2018-12-04T14:26:38Z</time>
      </trkpt>
      <trkpt lat="45.63838" lon="6.5875">
        <ele>1645.2</ele>
        <time>2018-12-04T14:26:54Z</time>
      </trkpt>
      <trkpt lat="45.63856" lon="6.58745">
        <ele>1644.6</ele>
        <time>2018-12-04T14:27:08Z</time>
      </trkpt>
      <trkpt lat="45.63874" lon="6.58738">
        <ele>1643.6</ele>
        <time>2018-12-04T14:27:22Z</time>
      </trkpt>
      <trkpt lat="45.63892" lon="6.58738">
        <ele>1641.5</ele>
        <time>2018-12-04T14:27:38Z</time>
      </trkpt>
      <trkpt lat="45.63911" lon="6.5874">
        <ele>1640.5</ele>
        <time>2018-12-04T14:27:53Z</time>
      </trkpt>
      <trkpt lat="45.6393" lon="6.58736">
        <ele>1639.7</ele>
        <time>2018-12-04T14:28:09Z</time>
      </trkpt>
      <trkpt lat="45.63948" lon="6.58729">
        <ele>1638.3</ele>
        <time>2018-12-04T14:28:26Z</time>
      </trkpt>
      <trkpt lat="45.63966" lon="6.58722">
        <ele>1637.6</ele>
        <time>2018-12-04T14:28:39Z</time>
      </trkpt>
      <trkpt lat="45.63983" lon="6.58715">
        <ele>1636.1</ele>
        <time>2018-12-04T14:28:52Z</time>
      </trkpt>
      <trkpt lat="45.64002" lon="6.58712">
        <ele>1634.4</ele>
        <time>2018-12-04T14:29:07Z</time>
      </trkpt>
      <trkpt lat="45.6402" lon="6.58709">
        <ele>1633.6</ele>
        <time>2018-12-04T14:29:22Z</time>
      </trkpt>
      <trkpt lat="45.64038" lon="6.58709">
        <ele>1633.1</ele>
        <time>2018-12-04T14:29:36Z</time>
      </trkpt>
      <trkpt lat="45.64056" lon="6.58698">
        <ele>1633.7</ele>
        <time>2018-12-04T14:29:51Z</time>
      </trkpt>
      <trkpt lat="45.64075" lon="6.58697">
        <ele>1635.2</ele>
        <time>2018-12-04T14:30:06Z</time>
      </trkpt>
      <trkpt lat="45.64094" lon="6.58697">
        <ele>1636</ele>
        <time>2018-12-04T14:30:20Z</time>
      </trkpt>
      <trkpt lat="45.64112" lon="6.5869">
        <ele>1636.5</ele>
        <time>2018-12-04T14:30:35Z</time>
      </trkpt>
      <trkpt lat="45.6413" lon="6.58683">
        <ele>1637</ele>
        <time>2018-12-04T14:30:49Z</time>
      </trkpt>
      <trkpt lat="45.64147" lon="6.58672">
        <ele>1636.8</ele>
        <time>2018-12-04T14:31:03Z</time>
      </trkpt>
      <trkpt lat="45.64161" lon="6.58656">
        <ele>1636.3</ele>
        <time>2018-12-04T14:31:19Z</time>
      </trkpt>
      <trkpt lat="45.64179" lon="6.58646">
        <ele>1636.5</ele>
        <time>2018-12-04T14:31:36Z</time>
      </trkpt>
      <trkpt lat="45.64197" lon="6.58638">
        <ele>1637.3</ele>
        <time>2018-12-04T14:31:52Z</time>
      </trkpt>
      <trkpt lat="45.64213" lon="6.58624">
        <ele>1638.1</ele>
        <time>2018-12-04T14:32:06Z</time>
      </trkpt>
      <trkpt lat="45.64228" lon="6.58611">
        <ele>1639.6</ele>
        <time>2018-12-04T14:32:23Z</time>
      </trkpt>
      <trkpt lat="45.64245" lon="6.586">
        <ele>1641.4</ele>
        <time>2018-12-04T14:32:39Z</time>
      </trkpt>
      <trkpt lat="45.64264" lon="6.58595">
        <ele>1643.9</ele>
        <time>2018-12-04T14:32:54Z</time>
      </trkpt>
      <trkpt lat="45.64281" lon="6.58586">
        <ele>1645.8</ele>
        <time>2018-12-04T14:33:09Z</time>
      </trkpt>
      <trkpt lat="45.64296" lon="6.5857">
        <ele>1647.2</ele>
        <time>2018-12-04T14:33:22Z</time>
      </trkpt>
      <trkpt lat="45.64307" lon="6.58549">
        <ele>1649.1</ele>
        <time>2018-12-04T14:33:39Z</time>
      </trkpt>
      <trkpt lat="45.64322" lon="6.58532">
        <ele>1650.8</ele>
        <time>2018-12-04T14:33:54Z</time>
      </trkpt>
      <trkpt lat="45.64339" lon="6.5852">
        <ele>1652.2</ele>
        <time>2018-12-04T14:34:10Z</time>
      </trkpt>
      <trkpt lat="45.64358" lon="6.58514">
        <ele>1653.5</ele>
        <time>2018-12-04T14:34:24Z</time>
      </trkpt>
      <trkpt lat="45.64376" lon="6.58511">
        <ele>1654.5</ele>
        <time>2018-12-04T14:34:39Z</time>
      </trkpt>
      <trkpt lat="45.64394" lon="6.58504">
        <ele>1655.2</ele>
        <time>2018-12-04T14:34:53Z</time>
      </trkpt>
      <trkpt lat="45.64409" lon="6.58487">
        <ele>1656</ele>
        <time>2018-12-04T14:35:09Z</time>
      </trkpt>
      <trkpt lat="45.64424" lon="6.58472">
        <ele>1657</ele>
        <time>2018-12-04T14:35:24Z</time>
      </trkpt>
      <trkpt lat="45.64441" lon="6.5846">
        <ele>1658.4</ele>
        <time>2018-12-04T14:35:40Z</time>
      </trkpt>
      <trkpt lat="45.64459" lon="6.5846">
        <ele>1659.8</ele>
        <time>2018-12-04T14:35:54Z</time>
      </trkpt>
      <trkpt lat="45.64478" lon="6.58459">
        <ele>1662.1</ele>
        <time>2018-12-04T14:36:11Z</time>
      </trkpt>
      <trkpt lat="45.64498" lon="6.58459">
        <ele>1664.4</ele>
        <time>2018-12-04T14:36:27Z</time>
      </trkpt>
      <trkpt lat="45.64517" lon="6.58463">
        <ele>1665.8</ele>
        <time>2018-12-04T14:36:41Z</time>
      </trkpt>
      <trkpt lat="45.64534" lon="6.58472">
        <ele>1666.6</ele>
        <time>2018-12-04T14:36:55Z</time>
      </trkpt>
      <trkpt lat="45.64549" lon="6.58487">
        <ele>1667.1</ele>
        <time>2018-12-04T14:37:10Z</time>
      </trkpt>
      <trkpt lat="45.64564" lon="6.585">
        <ele>1669</ele>
        <time>2018-12-04T14:37:32Z</time>
      </trkpt>
      <trkpt lat="45.64583" lon="6.58508">
        <ele>1670.2</ele>
        <time>2018-12-04T14:37:46Z</time>
      </trkpt>
      <trkpt lat="45.64601" lon="6.58517">
        <ele>1671.6</ele>
        <time>2018-12-04T14:37:59Z</time>
      </trkpt>
      <trkpt lat="45.64618" lon="6.58527">
        <ele>1673.2</ele>
        <time>2018-12-04T14:38:14Z</time>
      </trkpt>
      <trkpt lat="45.64633" lon="6.58542">
        <ele>1673.3</ele>
        <time>2018-12-04T14:38:27Z</time>
      </trkpt>
      <trkpt lat="45.64647" lon="6.58558">
        <ele>1672.6</ele>
        <time>2018-12-04T14:38:41Z</time>
      </trkpt>
      <trkpt lat="45.64661" lon="6.58577">
        <ele>1670.7</ele>
        <time>2018-12-04T14:38:56Z</time>
      </trkpt>
      <trkpt lat="45.64675" lon="6.58593">
        <ele>1668.7</ele>
        <time>2018-12-04T14:39:09Z</time>
      </trkpt>
      <trkpt lat="45.6469" lon="6.58609">
        <ele>1666.6</ele>
        <time>2018-12-04T14:39:21Z</time>
      </trkpt>
      <trkpt lat="45.64707" lon="6.58617">
        <ele>1662.7</ele>
        <time>2018-12-04T14:39:42Z</time>
      </trkpt>
      <trkpt lat="45.64725" lon="6.58624">
        <ele>1660.7</ele>
        <time>2018-12-04T14:39:55Z</time>
      </trkpt>
      <trkpt lat="45.64742" lon="6.58635">
        <ele>1659.3</ele>
        <time>2018-12-04T14:40:13Z</time>
      </trkpt>
      <trkpt lat="45.64759" lon="6.58644">
        <ele>1658.7</ele>
        <time>2018-12-04T14:40:25Z</time>
      </trkpt>
      <trkpt lat="45.64774" lon="6.5866">
        <ele>1657.7</ele>
        <time>2018-12-04T14:40:41Z</time>
      </trkpt>
      <trkpt lat="45.64789" lon="6.58677">
        <ele>1656.2</ele>
        <time>2018-12-04T14:40:57Z</time>
      </trkpt>
      <trkpt lat="45.64807" lon="6.58684">
        <ele>1656.1</ele>
        <time>2018-12-04T14:41:10Z</time>
      </trkpt>
      <trkpt lat="45.64824" lon="6.58695">
        <ele>1656.9</ele>
        <time>2018-12-04T14:41:25Z</time>
      </trkpt>
      <trkpt lat="45.64842" lon="6.58701">
        <ele>1657.7</ele>
        <time>2018-12-04T14:41:39Z</time>
      </trkpt>
      <trkpt lat="45.64859" lon="6.58713">
        <ele>1658</ele>
        <time>2018-12-04T14:41:48Z</time>
      </trkpt>
      <trkpt lat="45.64876" lon="6.58721">
        <ele>1656.5</ele>
        <time>2018-12-04T14:42:02Z</time>
      </trkpt>
      <trkpt lat="45.64894" lon="6.5872">
        <ele>1654.7</ele>
        <time>2018-12-04T14:42:17Z</time>
      </trkpt>
      <trkpt lat="45.64913" lon="6.58711">
        <ele>1653.8</ele>
        <time>2018-12-04T14:42:31Z</time>
      </trkpt>
      <trkpt lat="45.64931" lon="6.58709">
        <ele>1653.8</ele>
        <time>2018-12-04T14:42:42Z</time>
      </trkpt>
      <trkpt lat="45.64949" lon="6.58709">
        <ele>1652.6</ele>
        <time>2018-12-04T14:42:53Z</time>
      </trkpt>
      <trkpt lat="45.64964" lon="6.58693">
        <ele>1649.7</ele>
        <time>2018-12-04T14:43:07Z</time>
      </trkpt>
      <trkpt lat="45.64975" lon="6.5867">
        <ele>1647.1</ele>
        <time>2018-12-04T14:43:22Z</time>
      </trkpt>
      <trkpt lat="45.64985" lon="6.58647">
        <ele>1645.6</ele>
        <time>2018-12-04T14:43:39Z</time>
      </trkpt>
      <trkpt lat="45.64993" lon="6.58621">
        <ele>1642.9</ele>
        <time>2018-12-04T14:43:55Z</time>
      </trkpt>
      <trkpt lat="45.65004" lon="6.586">
        <ele>1640.5</ele>
        <time>2018-12-04T14:44:09Z</time>
      </trkpt>
      <trkpt lat="45.65021" lon="6.58588">
        <ele>1637.8</ele>
        <time>2018-12-04T14:44:24Z</time>
      </trkpt>
      <trkpt lat="45.6504" lon="6.5859">
        <ele>1636.1</ele>
        <time>2018-12-04T14:44:38Z</time>
      </trkpt>
      <trkpt lat="45.65057" lon="6.586">
        <ele>1635</ele>
        <time>2018-12-04T14:44:52Z</time>
      </trkpt>
      <trkpt lat="45.65074" lon="6.5861">
        <ele>1633.9</ele>
        <time>2018-12-04T14:45:05Z</time>
      </trkpt>
      <trkpt lat="45.65092" lon="6.58602">
        <ele>1632.2</ele>
        <time>2018-12-04T14:45:18Z</time>
      </trkpt>
      <trkpt lat="45.65095" lon="6.58577">
        <ele>1628.6</ele>
        <time>2018-12-04T14:45:37Z</time>
      </trkpt>
      <trkpt lat="45.65094" lon="6.5855">
        <ele>1625.2</ele>
        <time>2018-12-04T14:45:51Z</time>
      </trkpt>
      <trkpt lat="45.65099" lon="6.58524">
        <ele>1622.7</ele>
        <time>2018-12-04T14:46:04Z</time>
      </trkpt>
      <trkpt lat="45.65109" lon="6.58502">
        <ele>1620.7</ele>
        <time>2018-12-04T14:46:17Z</time>
      </trkpt>
      <trkpt lat="45.65123" lon="6.58484">
        <ele>1618.5</ele>
        <time>2018-12-04T14:46:30Z</time>
      </trkpt>
      <trkpt lat="45.65136" lon="6.58463">
        <ele>1616.2</ele>
        <time>2018-12-04T14:46:44Z</time>
      </trkpt>
      <trkpt lat="45.65148" lon="6.58441">
        <ele>1614.4</ele>
        <time>2018-12-04T14:46:58Z</time>
      </trkpt>
      <trkpt lat="45.65159" lon="6.58421">
        <ele>1612.8</ele>
        <time>2018-12-04T14:47:10Z</time>
      </trkpt>
      <trkpt lat="45.65167" lon="6.58397">
        <ele>1610</ele>
        <time>2018-12-04T14:47:24Z</time>
      </trkpt>
      <trkpt lat="45.65171" lon="6.5837">
        <ele>1606.2</ele>
        <time>2018-12-04T14:47:39Z</time>
      </trkpt>
      <trkpt lat="45.65172" lon="6.58344">
        <ele>1603.1</ele>
        <time>2018-12-04T14:47:53Z</time>
      </trkpt>
      <trkpt lat="45.65172" lon="6.58317">
        <ele>1600.4</ele>
        <time>2018-12-04T14:48:07Z</time>
      </trkpt>
      <trkpt lat="45.65166" lon="6.58291">
        <ele>1597.6</ele>
        <time>2018-12-04T14:48:23Z</time>
      </trkpt>
      <trkpt lat="45.65161" lon="6.58266">
        <ele>1594.8</ele>
        <time>2018-12-04T14:48:36Z</time>
      </trkpt>
      <trkpt lat="45.65158" lon="6.5824">
        <ele>1592.2</ele>
        <time>2018-12-04T14:48:49Z</time>
      </trkpt>
      <trkpt lat="45.65147" lon="6.58218">
        <ele>1590</ele>
        <time>2018-12-04T14:49:02Z</time>
      </trkpt>
      <trkpt lat="45.65137" lon="6.58196">
        <ele>1588.8</ele>
        <time>2018-12-04T14:49:14Z</time>
      </trkpt>
      <trkpt lat="45.65133" lon="6.5817">
        <ele>1587.2</ele>
        <time>2018-12-04T14:49:32Z</time>
      </trkpt>
      <trkpt lat="45.65135" lon="6.58144">
        <ele>1585.7</ele>
        <time>2018-12-04T14:49:47Z</time>
      </trkpt>
      <trkpt lat="45.65118" lon="6.58133">
        <ele>1582.9</ele>
        <time>2018-12-04T14:50:15Z</time>
      </trkpt>
    </trkseg>
  </trk>
</gpx>